| time (UTC) | temp C | wind direction | speed KPH | gust KPH | rain 1hr cm | rain 24hr cm | rain mn cm | humidity % | barometer mb |
| 20260906221237 | 37 | 114 | 14.5 | 20.9 | 0.00 | 0.00 | 0.00 | 40 | 1013.7 |
| 20260906221026 | 37 | 131 | 8.0 | 11.3 | 0.00 | 0.00 | 0.00 | 39 | 1013.5 |
| 20260906220824 | 37 | 107 | 6.4 | 9.7 | 0.00 | 0.00 | 0.00 | 40 | 1013.5 |
| 20260906220622 | 37 | 111 | 9.7 | 11.3 | 0.00 | 0.00 | 0.00 | 40 | 1013.4 |
| 20260906220421 | 37 | 122 | 9.7 | 12.9 | 0.00 | 0.00 | 0.00 | 40 | 1013.6 |
| 20260906220240 | 37 | 147 | 12.9 | 17.7 | 0.00 | 0.00 | 0.00 | 41 | 1013.5 |
| 20260906220039 | 37 | 165 | 17.7 | 22.5 | 0.00 | 0.00 | 0.00 | 41 | 1013.5 |
| 20260906215837 | 37 | 163 | 16.1 | 20.9 | 0.00 | 0.00 | 0.00 | 40 | 1013.5 |
| 20260906215627 | 37 | 146 | 12.9 | 20.9 | 0.00 | 0.00 | 0.00 | 41 | 1013.7 |
| 20260906215444 | 36 | 156 | 9.7 | 14.5 | 0.00 | 0.00 | 0.00 | 41 | 1013.6 |
| 20260906215222 | 36 | 111 | 11.3 | 17.7 | 0.00 | 0.00 | 0.00 | 42 | 1013.8 |
| 20260906215021 | 36 | 138 | 14.5 | 22.5 | 0.00 | 0.00 | 0.00 | 41 | 1013.7 |
| 20260906214819 | 36 | 97 | 12.9 | 20.9 | 0.00 | 0.00 | 0.00 | 41 | 1013.9 |
| 20260906214618 | 37 | 112 | 17.7 | 22.5 | 0.00 | 0.00 | 0.00 | 41 | 1013.9 |
| 20260906214416 | 37 | 126 | 17.7 | 25.7 | 0.00 | 0.00 | 0.00 | 41 | 1013.8 |
| 20260906214225 | 38 | 115 | 11.3 | 16.1 | 0.00 | 0.00 | 0.00 | 40 | 1013.7 |
| 20260906214024 | 37 | 148 | 8.0 | 12.9 | 0.00 | 0.00 | 0.00 | 40 | 1013.8 |
| 20260906213822 | 37 | 111 | 4.8 | 9.7 | 0.00 | 0.00 | 0.00 | 41 | 1013.7 |
| 20260906213622 | 37 | 102 | 16.1 | 20.9 | 0.00 | 0.00 | 0.00 | 41 | 1013.8 |
| 20260906213419 | 37 | 101 | 9.7 | 17.7 | 0.00 | 0.00 | 0.00 | 41 | 1013.8 |
| 20260906213218 | 37 | 110 | 8.0 | 12.9 | 0.00 | 0.00 | 0.00 | 41 | 1013.9 |
| 20260906213036 | 36 | 126 | 12.9 | 17.7 | 0.00 | 0.00 | 0.00 | 41 | 1013.9 |
| 20260906212825 | 37 | 127 | 14.5 | 22.5 | 0.00 | 0.00 | 0.00 | 40 | 1013.9 |
| 20260906212623 | 37 | 75 | 12.9 | 17.7 | 0.00 | 0.00 | 0.00 | 39 | 1013.9 |
| 20260906212422 | 37 | 82 | 14.5 | 20.9 | 0.00 | 0.00 | 0.00 | 39 | 1014.1 |
| 20260906212241 | 37 | 115 | 17.7 | 29.0 | 0.00 | 0.00 | 0.00 | 40 | 1013.8 |
| 20260906212019 | 37 | 105 | 8.0 | 11.3 | 0.00 | 0.00 | 0.00 | 41 | 1014.0 |
| 20260906211818 | 37 | 140 | 4.8 | 8.0 | 0.00 | 0.00 | 0.00 | 41 | 1014.3 |
| 20260906211616 | 37 | 131 | 9.7 | 17.7 | 0.00 | 0.00 | 0.00 | 41 | 1014.2 |
| 20260906211426 | 36 | 140 | 12.9 | 20.9 | 0.00 | 0.00 | 0.00 | 42 | 1014.0 |
| 20260906211225 | 37 | 95 | 9.7 | 16.1 | 0.00 | 0.00 | 0.00 | 40 | 1014.1 |
| 20260906211023 | 36 | 109 | 11.3 | 20.9 | 0.00 | 0.00 | 0.00 | 41 | 1014.1 |
| 20260906210820 | 37 | 113 | 17.7 | 22.5 | 0.00 | 0.00 | 0.00 | 40 | 1014.1 |
| 20260906210619 | 37 | 106 | 16.1 | 24.1 | 0.00 | 0.00 | 0.00 | 40 | 1014.2 |
| 20260906210438 | 38 | 142 | 14.5 | 25.7 | 0.00 | 0.00 | 0.00 | 40 | 1014.4 |
| 20260906210236 | 37 | 83 | 11.3 | 16.1 | 0.00 | 0.00 | 0.00 | 40 | 1014.4 |
| 20260906210025 | 37 | 90 | 11.3 | 16.1 | 0.00 | 0.00 | 0.00 | 41 | 1014.3 |
| 20260906205823 | 36 | 107 | 14.5 | 17.7 | 0.00 | 0.00 | 0.00 | 42 | 1014.3 |
| 20260906205622 | 37 | 111 | 20.9 | 27.4 | 0.00 | 0.00 | 0.00 | 42 | 1014.4 |
| 20260906205421 | 37 | 116 | 16.1 | 24.1 | 0.00 | 0.00 | 0.00 | 41 | 1014.5 |
| 20260906205220 | 37 | 86 | 9.7 | 14.5 | 0.00 | 0.00 | 0.00 | 40 | 1014.5 |
| 20260906205018 | 37 | 75 | 16.1 | 22.5 | 0.00 | 0.00 | 0.00 | 40 | 1014.5 |
| 20260906204817 | 37 | 103 | 16.1 | 27.4 | 0.00 | 0.00 | 0.00 | 39 | 1014.6 |
| 20260906204625 | 37 | 119 | 16.1 | 20.9 | 0.00 | 0.00 | 0.00 | 39 | 1014.6 |
| 20260906204424 | 37 | 136 | 9.7 | 17.7 | 0.00 | 0.00 | 0.00 | 41 | 1014.6 |
| 20260906204222 | 36 | 112 | 12.9 | 17.7 | 0.00 | 0.00 | 0.00 | 42 | 1014.7 |
| 20260906204020 | 36 | 140 | 17.7 | 24.1 | 0.00 | 0.00 | 0.00 | 41 | 1014.7 |
| 20260906203819 | 36 | 124 | 12.9 | 20.9 | 0.00 | 0.00 | 0.00 | 41 | 1014.8 |
| 20260906203618 | 36 | 114 | 22.5 | 27.4 | 0.00 | 0.00 | 0.00 | 42 | 1014.7 |
| 20260906203417 | 37 | 119 | 16.1 | 27.4 | 0.00 | 0.00 | 0.00 | 41 | 1014.7 |
| 20260906203225 | 37 | 122 | 12.9 | 19.3 | 0.00 | 0.00 | 0.00 | 41 | 1014.6 |
| 20260906203024 | 38 | 90 | 8.0 | 16.1 | 0.00 | 0.00 | 0.00 | 39 | 1014.8 |
| 20260906202842 | 37 | 124 | 3.2 | 8.0 | 0.00 | 0.00 | 0.00 | 40 | 1014.6 |
| 20260906202620 | 37 | 101 | 11.3 | 16.1 | 0.00 | 0.00 | 0.00 | 40 | 1014.9 |
| 20260906202439 | 37 | 94 | 14.5 | 19.3 | 0.00 | 0.00 | 0.00 | 39 | 1014.8 |
| 20260906202218 | 37 | 91 | 11.3 | 20.9 | 0.00 | 0.00 | 0.00 | 40 | 1015.0 |
| 20260906202037 | 37 | 96 | 11.3 | 19.3 | 0.00 | 0.00 | 0.00 | 40 | 1014.7 |
| 20260906201825 | 37 | 88 | 9.7 | 14.5 | 0.00 | 0.00 | 0.00 | 40 | 1014.8 |
| 20260906201623 | 37 | 94 | 14.5 | 24.1 | 0.00 | 0.00 | 0.00 | 40 | 1015.0 |
| 20260906201422 | 36 | 70 | 9.7 | 16.1 | 0.00 | 0.00 | 0.00 | 40 | 1015.0 |
| 20260906201221 | 36 | 111 | 16.1 | 25.7 | 0.00 | 0.00 | 0.00 | 41 | 1014.9 |
| 20260906201019 | 37 | 88 | 17.7 | 25.7 | 0.00 | 0.00 | 0.00 | 41 | 1014.9 |
| 20260906200821 | 37 | 83 | 14.5 | 24.1 | 0.00 | 0.00 | 0.00 | 40 | 1014.9 |
| 20260906200616 | 37 | 102 | 8.0 | 14.5 | 0.00 | 0.00 | 0.00 | 41 | 1015.0 |
| 20260906200425 | 37 | 97 | 8.0 | 12.9 | 0.00 | 0.00 | 0.00 | 41 | 1015.0 |
| 20260906200224 | 36 | 96 | 11.3 | 20.9 | 0.00 | 0.00 | 0.00 | 42 | 1014.9 |
| 20260906200022 | 36 | 81 | 16.1 | 22.5 | 0.00 | 0.00 | 0.00 | 43 | 1015.1 |
| 20260906195820 | 36 | 95 | 11.3 | 20.9 | 0.00 | 0.00 | 0.00 | 43 | 1015.2 |
| 20260906195619 | 36 | 106 | 12.9 | 17.7 | 0.00 | 0.00 | 0.00 | 41 | 1015.2 |
| 20260906195438 | 37 | 103 | 11.3 | 20.9 | 0.00 | 0.00 | 0.00 | 40 | 1015.1 |
| 20260906195216 | 37 | 118 | 6.4 | 9.7 | 0.00 | 0.00 | 0.00 | 42 | 1015.2 |
| 20260906195025 | 36 | 115 | 11.3 | 14.5 | 0.00 | 0.00 | 0.00 | 42 | 1015.4 |
| 20260906194823 | 36 | 104 | 11.3 | 16.1 | 0.00 | 0.00 | 0.00 | 43 | 1015.1 |
| 20260906194622 | 35 | 102 | 12.9 | 17.7 | 0.00 | 0.00 | 0.00 | 44 | 1015.4 |
| 20260906194420 | 35 | 111 | 17.7 | 24.1 | 0.00 | 0.00 | 0.00 | 45 | 1015.3 |
| 20260906194219 | 37 | 83 | 12.9 | 20.9 | 0.00 | 0.00 | 0.00 | 42 | 1015.3 |
| 20260906194017 | 37 | 85 | 17.7 | 35.4 | 0.00 | 0.00 | 0.00 | 42 | 1015.4 |
| 20260906193816 | 36 | 80 | 8.0 | 14.5 | 0.00 | 0.00 | 0.00 | 42 | 1015.3 |
| 20260906193625 | 37 | 87 | 11.3 | 19.3 | 0.00 | 0.00 | 0.00 | 40 | 1015.4 |
| 20260906193423 | 37 | 86 | 8.0 | 12.9 | 0.00 | 0.00 | 0.00 | 41 | 1015.6 |
| 20260906193225 | 37 | 89 | 9.7 | 17.7 | 0.00 | 0.00 | 0.00 | 41 | 1015.5 |
| 20260906193020 | 37 | 105 | 14.5 | 29.0 | 0.00 | 0.00 | 0.00 | 42 | 1015.4 |
| 20260906192819 | 37 | 100 | 17.7 | 25.7 | 0.00 | 0.00 | 0.00 | 42 | 1015.4 |
| 20260906192617 | 36 | 98 | 4.8 | 9.7 | 0.00 | 0.00 | 0.00 | 42 | 1015.5 |
| 20260906192416 | 36 | 79 | 19.3 | 24.1 | 0.00 | 0.00 | 0.00 | 43 | 1015.5 |
| 20260906192224 | 35 | 115 | 19.3 | 22.5 | 0.00 | 0.00 | 0.00 | 46 | 1015.4 |
| 20260906192025 | 36 | 107 | 17.7 | 29.0 | 0.00 | 0.00 | 0.00 | 44 | 1015.6 |
| 20260906191821 | 36 | 96 | 11.3 | 20.9 | 0.00 | 0.00 | 0.00 | 44 | 1015.4 |
| 20260906191640 | 36 | 113 | 12.9 | 24.1 | 0.00 | 0.00 | 0.00 | 45 | 1015.6 |
| 20260906191418 | 37 | 118 | 17.7 | 22.5 | 0.00 | 0.00 | 0.00 | 43 | 1015.6 |
| 20260906191217 | 37 | 117 | 14.5 | 24.1 | 0.00 | 0.00 | 0.00 | 43 | 1015.5 |
| 20260906191016 | 37 | 118 | 17.7 | 22.5 | 0.00 | 0.00 | 0.00 | 44 | 1015.5 |
| 20260906190824 | 36 | 127 | 9.7 | 12.9 | 0.00 | 0.00 | 0.00 | 44 | 1015.6 |
| 20260906190643 | 36 | 118 | 14.5 | 20.9 | 0.00 | 0.00 | 0.00 | 44 | 1015.6 |
| 20260906190421 | 35 | 99 | 16.1 | 22.5 | 0.00 | 0.00 | 0.00 | 44 | 1015.5 |
| 20260906190220 | 36 | 86 | 17.7 | 22.5 | 0.00 | 0.00 | 0.00 | 43 | 1015.6 |
| 20260906190018 | 37 | 83 | 17.7 | 22.5 | 0.00 | 0.00 | 0.00 | 42 | 1015.5 |
| 20260906185817 | 37 | 93 | 16.1 | 24.1 | 0.00 | 0.00 | 0.00 | 43 | 1015.5 |
| 20260906185616 | 37 | 78 | 14.5 | 19.3 | 0.00 | 0.00 | 0.00 | 42 | 1015.7 |
| 20260906185424 | 36 | 134 | 11.3 | 16.1 | 0.00 | 0.00 | 0.00 | 45 | 1015.7 |
| 20260906185223 | 36 | 143 | 12.9 | 24.1 | 0.00 | 0.00 | 0.00 | 44 | 1015.7 |
| 20260906185021 | 36 | 90 | 11.3 | 16.1 | 0.00 | 0.00 | 0.00 | 44 | 1015.7 |
| 20260906184840 | 36 | 103 | 14.5 | 19.3 | 0.00 | 0.00 | 0.00 | 44 | 1015.6 |
| 20260906184618 | 37 | 91 | 17.7 | 25.7 | 0.00 | 0.00 | 0.00 | 44 | 1015.7 |
| 20260906184417 | 37 | 79 | 12.9 | 17.7 | 0.00 | 0.00 | 0.00 | 42 | 1015.8 |
| 20260906184225 | 36 | 109 | 16.1 | 22.5 | 0.00 | 0.00 | 0.00 | 44 | 1015.8 |
| 20260906184024 | 36 | 89 | 11.3 | 20.9 | 0.00 | 0.00 | 0.00 | 44 | 1015.7 |
| 20260906183825 | 35 | 82 | 6.4 | 9.7 | 0.00 | 0.00 | 0.00 | 46 | 1016.1 |
| 20260906183621 | 34 | 93 | 8.0 | 12.9 | 0.00 | 0.00 | 0.00 | 49 | 1015.8 |
| 20260906183439 | 35 | 107 | 9.7 | 12.9 | 0.00 | 0.00 | 0.00 | 49 | 1015.8 |
| 20260906183218 | 34 | 78 | 6.4 | 8.0 | 0.00 | 0.00 | 0.00 | 49 | 1015.9 |
| 20260906183016 | 35 | 90 | 6.4 | 14.5 | 0.00 | 0.00 | 0.00 | 49 | 1016.0 |
| 20260906182825 | 34 | 111 | 6.4 | 11.3 | 0.00 | 0.00 | 0.00 | 49 | 1016.0 |
| 20260906182704 | 34 | 154 | 14.5 | 19.3 | 0.00 | 0.00 | 0.00 | 49 | 1015.8 |
| 20260906182502 | 35 | 136 | 20.9 | 25.7 | 0.00 | 0.00 | 0.00 | 48 | 1015.9 |
| 20260906182220 | 36 | 128 | 14.5 | 20.9 | 0.00 | 0.00 | 0.00 | 46 | 1015.9 |
| 20260906182039 | 36 | 107 | 6.4 | 9.7 | 0.00 | 0.00 | 0.00 | 47 | 1016.0 |
| 20260906181818 | 36 | 78 | 16.1 | 24.1 | 0.00 | 0.00 | 0.00 | 46 | 1016.0 |
| 20260906181618 | 36 | 102 | 14.5 | 19.3 | 0.00 | 0.00 | 0.00 | 47 | 1016.1 |
| 20260906181425 | 36 | 137 | 14.5 | 17.7 | 0.00 | 0.00 | 0.00 | 47 | 1016.1 |
| 20260906181224 | 36 | 120 | 6.4 | 12.9 | 0.00 | 0.00 | 0.00 | 47 | 1016.1 |
| 20260906181022 | 36 | 80 | 12.9 | 17.7 | 0.00 | 0.00 | 0.00 | 45 | 1016.2 |
| 20260906180820 | 36 | 153 | 6.4 | 8.0 | 0.00 | 0.00 | 0.00 | 45 | 1015.9 |
| 20260906180619 | 36 | 85 | 16.1 | 27.4 | 0.00 | 0.00 | 0.00 | 46 | 1016.2 |
| 20260906180418 | 36 | 129 | 12.9 | 17.7 | 0.00 | 0.00 | 0.00 | 47 | 1016.1 |
| 20260906180216 | 36 | 166 | 11.3 | 14.5 | 0.00 | 0.00 | 0.00 | 46 | 1016.3 |
| 20260906180025 | 35 | 121 | 9.7 | 16.1 | 0.00 | 0.00 | 0.00 | 47 | 1016.3 |
| 20260906175823 | 35 | 125 | 14.5 | 24.1 | 0.00 | 0.00 | 0.00 | 48 | 1016.4 |
| 20260906175622 | 36 | 114 | 22.5 | 29.0 | 0.00 | 0.00 | 0.00 | 47 | 1016.1 |
| 20260906175421 | 37 | 115 | 12.9 | 20.9 | 0.00 | 0.00 | 0.00 | 45 | 1016.6 |
| 20260906175219 | 37 | 88 | 3.2 | 6.4 | 0.00 | 0.00 | 0.00 | 45 | 1016.6 |
| 20260906175019 | 36 | 55 | 6.4 | 11.3 | 0.00 | 0.00 | 0.00 | 46 | 1016.8 |
| 20260906174816 | 36 | 92 | 11.3 | 20.9 | 0.00 | 0.00 | 0.00 | 47 | 1016.6 |
| 20260906174625 | 36 | 77 | 14.5 | 20.9 | 0.00 | 0.00 | 0.00 | 46 | 1016.6 |
| 20260906174423 | 35 | 116 | 11.3 | 20.9 | 0.00 | 0.00 | 0.00 | 48 | 1016.8 |
| 20260906174222 | 35 | 104 | 11.3 | 14.5 | 0.00 | 0.00 | 0.00 | 47 | 1016.7 |
| 20260906174020 | 37 | 91 | 11.3 | 20.9 | 0.00 | 0.00 | 0.00 | 45 | 1016.8 |
| 20260906173840 | 36 | 128 | 9.7 | 14.5 | 0.00 | 0.00 | 0.00 | 46 | 1016.6 |
| 20260906173637 | 36 | 152 | 8.0 | 11.3 | 0.00 | 0.00 | 0.00 | 46 | 1016.8 |
| 20260906173416 | 35 | 129 | 11.3 | 20.9 | 0.00 | 0.00 | 0.00 | 47 | 1016.6 |
| 20260906173225 | 36 | 119 | 19.3 | 27.4 | 0.00 | 0.00 | 0.00 | 46 | 1016.9 |
| 20260906173023 | 36 | 98 | 16.1 | 20.9 | 0.00 | 0.00 | 0.00 | 46 | 1016.7 |
| 20260906172822 | 35 | 73 | 11.3 | 19.3 | 0.00 | 0.00 | 0.00 | 48 | 1016.8 |
| 20260906172621 | 35 | 67 | 12.9 | 19.3 | 0.00 | 0.00 | 0.00 | 47 | 1016.7 |
| 20260906172439 | 35 | 79 | 14.5 | 20.9 | 0.00 | 0.00 | 0.00 | 48 | 1016.8 |
| 20260906172217 | 35 | 75 | 16.1 | 22.5 | 0.00 | 0.00 | 0.00 | 47 | 1016.8 |
| 20260906172016 | 35 | 95 | 14.5 | 19.3 | 0.00 | 0.00 | 0.00 | 48 | 1016.9 |
| 20260906171825 | 35 | 110 | 14.5 | 19.3 | 0.00 | 0.00 | 0.00 | 47 | 1017.0 |
| 20260906171623 | 35 | 75 | 9.7 | 14.5 | 0.00 | 0.00 | 0.00 | 47 | 1016.9 |
| 20260906171422 | 35 | 115 | 12.9 | 19.3 | 0.00 | 0.00 | 0.00 | 47 | 1016.9 |
| 20260906171221 | 36 | 112 | 17.7 | 24.1 | 0.00 | 0.00 | 0.00 | 47 | 1017.0 |
| 20260906171019 | 35 | 121 | 11.3 | 14.5 | 0.00 | 0.00 | 0.00 | 47 | 1016.9 |
| 20260906170817 | 36 | 109 | 12.9 | 16.1 | 0.00 | 0.00 | 0.00 | 47 | 1017.1 |
| 20260906170616 | 35 | 138 | 12.9 | 19.3 | 0.00 | 0.00 | 0.00 | 48 | 1017.3 |
| 20260906170425 | 35 | 128 | 16.1 | 19.3 | 0.00 | 0.00 | 0.00 | 47 | 1017.2 |
| 20260906170223 | 35 | 131 | 12.9 | 17.7 | 0.00 | 0.00 | 0.00 | 47 | 1017.1 |
| 20260906165821 | 35 | 141 | 16.1 | 20.9 | 0.00 | 0.00 | 0.00 | 47 | 1017.3 |
| 20260906165619 | 35 | 87 | 8.0 | 14.5 | 0.00 | 0.00 | 0.00 | 47 | 1017.4 |
| 20260906165418 | 35 | 137 | 14.5 | 25.7 | 0.00 | 0.00 | 0.00 | 48 | 1017.2 |
| 20260906165217 | 35 | 115 | 17.7 | 22.5 | 0.00 | 0.00 | 0.00 | 48 | 1017.3 |
| 20260906165026 | 35 | 116 | 16.1 | 22.5 | 0.00 | 0.00 | 0.00 | 46 | 1017.3 |
| 20260906164823 | 36 | 127 | 9.7 | 11.3 | 0.00 | 0.00 | 0.00 | 46 | 1017.2 |
| 20260906164622 | 36 | 89 | 12.9 | 19.3 | 0.00 | 0.00 | 0.00 | 46 | 1017.2 |
| 20260906164441 | 36 | 105 | 14.5 | 20.9 | 0.00 | 0.00 | 0.00 | 45 | 1017.1 |
| 20260906164219 | 36 | 110 | 9.7 | 12.9 | 0.00 | 0.00 | 0.00 | 45 | 1017.1 |
| 20260906164038 | 36 | 102 | 9.7 | 14.5 | 0.00 | 0.00 | 0.00 | 45 | 1017.1 |
| 20260906163816 | 36 | 89 | 14.5 | 25.7 | 0.00 | 0.00 | 0.00 | 46 | 1016.9 |
| 20260906163624 | 36 | 69 | 11.3 | 16.1 | 0.00 | 0.00 | 0.00 | 46 | 1017.2 |
| 20260906163423 | 35 | 71 | 4.8 | 9.7 | 0.00 | 0.00 | 0.00 | 48 | 1017.3 |
| 20260906163222 | 35 | 85 | 9.7 | 16.1 | 0.00 | 0.00 | 0.00 | 48 | 1017.3 |
| 20260906163101 | 35 | 141 | 4.8 | 8.0 | 0.00 | 0.00 | 0.00 | 49 | 1017.2 |
| 20260906162819 | 34 | 129 | 9.7 | 14.5 | 0.00 | 0.00 | 0.00 | 50 | 1017.3 |
| 20260906162618 | 35 | 110 | 16.1 | 24.1 | 0.00 | 0.00 | 0.00 | 49 | 1017.0 |
| 20260906162416 | 34 | 116 | 12.9 | 17.7 | 0.00 | 0.00 | 0.00 | 51 | 1017.1 |
| 20260906162225 | 35 | 113 | 14.5 | 20.9 | 0.00 | 0.00 | 0.00 | 49 | 1017.1 |
| 20260906162024 | 35 | 84 | 8.0 | 12.9 | 0.00 | 0.00 | 0.00 | 50 | 1017.1 |
| 20260906161822 | 34 | 91 | 12.9 | 17.7 | 0.00 | 0.00 | 0.00 | 50 | 1017.1 |
| 20260906161640 | 35 | 88 | 16.1 | 22.5 | 0.00 | 0.00 | 0.00 | 48 | 1017.0 |
| 20260906161419 | 35 | 63 | 9.7 | 16.1 | 0.00 | 0.00 | 0.00 | 50 | 1017.2 |
| 20260906161217 | 35 | 129 | 8.0 | 14.5 | 0.00 | 0.00 | 0.00 | 50 | 1017.1 |
| 20260906161016 | 35 | 55 | 8.0 | 12.9 | 0.00 | 0.00 | 0.00 | 50 | 1017.2 |
| 20260906160825 | 35 | 90 | 8.0 | 11.3 | 0.00 | 0.00 | 0.00 | 49 | 1017.2 |
| 20260906160624 | 34 | 92 | 9.7 | 14.5 | 0.00 | 0.00 | 0.00 | 51 | 1017.2 |
| 20260906160422 | 35 | 76 | 12.9 | 22.5 | 0.00 | 0.00 | 0.00 | 49 | 1017.2 |
| 20260906160240 | 35 | 69 | 6.4 | 9.7 | 0.00 | 0.00 | 0.00 | 49 | 1017.3 |
| 20260906160019 | 33 | 67 | 11.3 | 17.7 | 0.00 | 0.00 | 0.00 | 52 | 1017.2 |
| 20260906155817 | 34 | 70 | 12.9 | 22.5 | 0.00 | 0.00 | 0.00 | 50 | 1016.8 |
| 20260906155616 | 34 | 88 | 6.4 | 9.7 | 0.00 | 0.00 | 0.00 | 51 | 1017.2 |
| 20260906155425 | 35 | 86 | 11.3 | 16.1 | 0.00 | 0.00 | 0.00 | 51 | 1017.2 |
| 20260906155223 | 35 | 59 | 9.7 | 14.5 | 0.00 | 0.00 | 0.00 | 49 | 1016.9 |
| 20260906155101 | 35 | 70 | 8.0 | 11.3 | 0.00 | 0.00 | 0.00 | 49 | 1016.9 |
| 20260906154820 | 34 | 103 | 8.0 | 11.3 | 0.00 | 0.00 | 0.00 | 50 | 1017.0 |
| 20260906154638 | 34 | 98 | 9.7 | 12.9 | 0.00 | 0.00 | 0.00 | 50 | 1017.3 |
| 20260906154417 | 35 | 89 | 6.4 | 9.7 | 0.00 | 0.00 | 0.00 | 50 | 1017.1 |
| 20260906154216 | 34 | 74 | 9.7 | 14.5 | 0.00 | 0.00 | 0.00 | 51 | 1017.1 |
| 20260906154045 | 33 | 92 | 4.8 | 8.0 | 0.00 | 0.00 | 0.00 | 53 | 1017.3 |
| 20260906153843 | 33 | 44 | 9.7 | 12.9 | 0.00 | 0.00 | 0.00 | 53 | 1017.0 |
| 20260906153621 | 34 | 44 | 8.0 | 14.5 | 0.00 | 0.00 | 0.00 | 53 | 1017.0 |
| 20260906153420 | 33 | 63 | 6.4 | 8.0 | 0.00 | 0.00 | 0.00 | 54 | 1017.2 |
| 20260906153219 | 33 | 83 | 14.5 | 19.3 | 0.00 | 0.00 | 0.00 | 55 | 1017.0 |
| 20260906153019 | 33 | 78 | 12.9 | 17.7 | 0.00 | 0.00 | 0.00 | 55 | 1017.2 |
| 20260906152836 | 33 | 35 | 9.7 | 12.9 | 0.00 | 0.00 | 0.00 | 55 | 1017.1 |
| 20260906152624 | 34 | 69 | 11.3 | 16.1 | 0.00 | 0.00 | 0.00 | 54 | 1017.0 |
| 20260906152423 | 33 | 130 | 4.8 | 9.7 | 0.00 | 0.00 | 0.00 | 55 | 1017.0 |
| 20260906152222 | 33 | 110 | 3.2 | 6.4 | 0.00 | 0.00 | 0.00 | 55 | 1016.9 |
| 20260906152042 | 33 | 55 | 8.0 | 9.7 | 0.00 | 0.00 | 0.00 | 54 | 1016.9 |
| 20260906151818 | 34 | 60 | 4.8 | 6.4 | 0.00 | 0.00 | 0.00 | 54 | 1016.9 |
| 20260906151617 | 34 | 84 | 3.2 | 4.8 | 0.00 | 0.00 | 0.00 | 55 | 1016.8 |
| 20260906151415 | 33 | 101 | 4.8 | 8.0 | 0.00 | 0.00 | 0.00 | 57 | 1016.7 |
| 20260906151224 | 32 | 63 | 3.2 | 6.4 | 0.00 | 0.00 | 0.00 | 59 | 1016.8 |
| 20260906151023 | 32 | 43 | 6.4 | 9.7 | 0.00 | 0.00 | 0.00 | 59 | 1016.9 |
| 20260906150822 | 32 | 70 | 6.4 | 9.7 | 0.00 | 0.00 | 0.00 | 60 | 1016.9 |
| 20260906150643 | 32 | 54 | 6.4 | 9.7 | 0.00 | 0.00 | 0.00 | 60 | 1016.8 |
| 20260906150418 | 32 | 59 | 6.4 | 8.0 | 0.00 | 0.00 | 0.00 | 60 | 1016.9 |
| 20260906150237 | 32 | 72 | 3.2 | 6.4 | 0.00 | 0.00 | 0.00 | 60 | 1016.8 |
| 20260906150016 | 32 | 66 | 6.4 | 8.0 | 0.00 | 0.00 | 0.00 | 61 | 1017.0 |
| 20260906145824 | 32 | 56 | 6.4 | 9.7 | 0.00 | 0.00 | 0.00 | 61 | 1017.0 |
| 20260906145623 | 32 | 122 | 3.2 | 4.8 | 0.00 | 0.00 | 0.00 | 61 | 1017.0 |
| 20260906145422 | 32 | 89 | 4.8 | 6.4 | 0.00 | 0.00 | 0.00 | 61 | 1016.9 |
| 20260906145220 | 32 | 87 | 4.8 | 8.0 | 0.00 | 0.00 | 0.00 | 62 | 1017.0 |
| 20260906145018 | 32 | 80 | 4.8 | 8.0 | 0.00 | 0.00 | 0.00 | 62 | 1016.7 |
| 20260906144817 | 32 | 64 | 6.4 | 9.7 | 0.00 | 0.00 | 0.00 | 62 | 1017.0 |
| 20260906144616 | 31 | 50 | 6.4 | 8.0 | 0.00 | 0.00 | 0.00 | 63 | 1016.8 |
| 20260906144424 | 32 | 65 | 4.8 | 6.4 | 0.00 | 0.00 | 0.00 | 62 | 1016.8 |
| 20260906144223 | 31 | 82 | 6.4 | 8.0 | 0.00 | 0.00 | 0.00 | 63 | 1016.8 |
| 20260906144022 | 31 | 83 | 3.2 | 6.4 | 0.00 | 0.00 | 0.00 | 65 | 1016.9 |
| 20260906143820 | 31 | 83 | 8.0 | 9.7 | 0.00 | 0.00 | 0.00 | 65 | 1016.9 |
| 20260906143619 | 31 | 50 | 6.4 | 8.0 | 0.00 | 0.00 | 0.00 | 64 | 1016.9 |
| 20260906143437 | 31 | 96 | 3.2 | 6.4 | 0.00 | 0.00 | 0.00 | 64 | 1016.9 |
| 20260906143216 | 31 | 100 | 6.4 | 8.0 | 0.00 | 0.00 | 0.00 | 65 | 1016.9 |
| 20260906143025 | 31 | 83 | 8.0 | 9.7 | 0.00 | 0.00 | 0.00 | 65 | 1016.9 |
| 20260906142823 | 31 | 89 | 4.8 | 9.7 | 0.00 | 0.00 | 0.00 | 66 | 1017.0 |
| 20260906142702 | 31 | 77 | 8.0 | 11.3 | 0.00 | 0.00 | 0.00 | 66 | 1016.9 |
| 20260906142420 | 31 | 120 | 4.8 | 6.4 | 0.00 | 0.00 | 0.00 | 66 | 1016.9 |
| 20260906142218 | 30 | 78 | 6.4 | 9.7 | 0.00 | 0.00 | 0.00 | 68 | 1017.1 |
| 20260906142017 | 30 | 110 | 9.7 | 9.7 | 0.00 | 0.00 | 0.00 | 70 | 1017.0 |
| 20260906141816 | 30 | 97 | 6.4 | 9.7 | 0.00 | 0.00 | 0.00 | 70 | 1017.0 |
| 20260906141624 | 30 | 111 | 6.4 | 8.0 | 0.00 | 0.00 | 0.00 | 69 | 1016.9 |
| 20260906141423 | 30 | 120 | 6.4 | 9.7 | 0.00 | 0.00 | 0.00 | 70 | 1017.1 |
| 20260906141242 | 29 | 117 | 8.0 | 11.3 | 0.00 | 0.00 | 0.00 | 71 | 1017.0 |
| 20260906141020 | 29 | 138 | 9.7 | 12.9 | 0.00 | 0.00 | 0.00 | 71 | 1016.9 |
| 20260906140819 | 29 | 133 | 6.4 | 9.7 | 0.00 | 0.00 | 0.00 | 71 | 1017.0 |
| 20260906140617 | 30 | 102 | 4.8 | 9.7 | 0.00 | 0.00 | 0.00 | 70 | 1017.0 |
| 20260906140416 | 29 | 118 | 8.0 | 9.7 | 0.00 | 0.00 | 0.00 | 72 | 1017.0 |
| 20260906140224 | 28 | 132 | 6.4 | 9.7 | 0.00 | 0.00 | 0.00 | 73 | 1016.8 |
| 20260906140023 | 28 | 145 | 6.4 | 9.7 | 0.00 | 0.00 | 0.00 | 73 | 1016.8 |
| 20260906135841 | 28 | 148 | 9.7 | 11.3 | 0.00 | 0.00 | 0.00 | 73 | 1017.0 |
| 20260906135640 | 28 | 159 | 9.7 | 12.9 | 0.00 | 0.00 | 0.00 | 73 | 1016.9 |
| 20260906135418 | 29 | 134 | 6.4 | 8.0 | 0.00 | 0.00 | 0.00 | 72 | 1016.8 |
| 20260906135217 | 29 | 124 | 6.4 | 8.0 | 0.00 | 0.00 | 0.00 | 73 | 1017.0 |
| 20260906135015 | 28 | 100 | 6.4 | 9.7 | 0.00 | 0.00 | 0.00 | 73 | 1016.9 |
| 20260906134824 | 28 | 108 | 6.4 | 8.0 | 0.00 | 0.00 | 0.00 | 74 | 1016.9 |
| 20260906134623 | 28 | 106 | 8.0 | 11.3 | 0.00 | 0.00 | 0.00 | 75 | 1016.8 |
| 20260906134441 | 28 | 127 | 6.4 | 9.7 | 0.00 | 0.00 | 0.00 | 75 | 1016.7 |
| 20260906134240 | 28 | 104 | 8.0 | 9.7 | 0.00 | 0.00 | 0.00 | 75 | 1016.8 |
| 20260906134018 | 28 | 122 | 6.4 | 8.0 | 0.00 | 0.00 | 0.00 | 74 | 1016.6 |
| 20260906133817 | 28 | 120 | 6.4 | 8.0 | 0.00 | 0.00 | 0.00 | 75 | 1016.8 |
| 20260906133615 | 28 | 105 | 6.4 | 8.0 | 0.00 | 0.00 | 0.00 | 75 | 1016.7 |
| 20260906133424 | 28 | 98 | 6.4 | 8.0 | 0.00 | 0.00 | 0.00 | 75 | 1016.8 |
| 20260906133223 | 28 | 107 | 6.4 | 8.0 | 0.00 | 0.00 | 0.00 | 75 | 1016.6 |
| 20260906133021 | 28 | 98 | 6.4 | 8.0 | 0.00 | 0.00 | 0.00 | 76 | 1016.8 |
| 20260906132820 | 27 | 107 | 6.4 | 8.0 | 0.00 | 0.00 | 0.00 | 76 | 1016.6 |
| 20260906132618 | 27 | 103 | 4.8 | 6.4 | 0.00 | 0.00 | 0.00 | 77 | 1016.7 |
| 20260906132417 | 27 | 100 | 6.4 | 8.0 | 0.00 | 0.00 | 0.00 | 77 | 1016.9 |
| 20260906132215 | 27 | 109 | 6.4 | 8.0 | 0.00 | 0.00 | 0.00 | 79 | 1016.7 |
| 20260906132024 | 27 | 107 | 8.0 | 9.7 | 0.00 | 0.00 | 0.00 | 79 | 1016.7 |
| 20260906131823 | 27 | 107 | 6.4 | 8.0 | 0.00 | 0.00 | 0.00 | 79 | 1016.8 |
| 20260906131622 | 26 | 110 | 6.4 | 8.0 | 0.00 | 0.00 | 0.00 | 79 | 1016.9 |
| 20260906131440 | 26 | 96 | 6.4 | 8.0 | 0.00 | 0.00 | 0.00 | 80 | 1016.9 |
| 20260906131218 | 26 | 107 | 8.0 | 9.7 | 0.00 | 0.00 | 0.00 | 81 | 1016.6 |
| 20260906131017 | 26 | 110 | 9.7 | 11.3 | 0.00 | 0.00 | 0.00 | 80 | 1017.0 |
| 20260906130816 | 26 | 101 | 6.4 | 8.0 | 0.00 | 0.00 | 0.00 | 80 | 1016.8 |
| 20260906130624 | 26 | 107 | 6.4 | 8.0 | 0.00 | 0.00 | 0.00 | 81 | 1017.0 |
| 20260906130423 | 26 | 102 | 6.4 | 9.7 | 0.00 | 0.00 | 0.00 | 81 | 1016.7 |
| 20260906130221 | 26 | 109 | 6.4 | 8.0 | 0.00 | 0.00 | 0.00 | 81 | 1016.8 |
| 20260906130100 | 26 | 104 | 4.8 | 8.0 | 0.00 | 0.00 | 0.00 | 81 | 1016.7 |
| 20260906125818 | 26 | 111 | 4.8 | 6.4 | 0.00 | 0.00 | 0.00 | 82 | 1016.8 |
| 20260906125617 | 25 | 110 | 4.8 | 6.4 | 0.00 | 0.00 | 0.00 | 82 | 1016.6 |
| 20260906125416 | 25 | 111 | 6.4 | 6.4 | 0.00 | 0.00 | 0.00 | 82 | 1016.7 |
| 20260906125224 | 25 | 104 | 4.8 | 6.4 | 0.00 | 0.00 | 0.00 | 82 | 1016.8 |
| 20260906125043 | 25 | 97 | 3.2 | 3.2 | 0.00 | 0.00 | 0.00 | 83 | 1016.7 |
| 20260906124821 | 25 | 93 | 3.2 | 4.8 | 0.00 | 0.00 | 0.00 | 84 | 1016.7 |
| 20260906124640 | 24 | 90 | 4.8 | 6.4 | 0.00 | 0.00 | 0.00 | 84 | 1016.6 |
| 20260906124418 | 24 | 77 | 4.8 | 6.4 | 0.00 | 0.00 | 0.00 | 85 | 1016.6 |
| 20260906124217 | 24 | 80 | 4.8 | 6.4 | 0.00 | 0.00 | 0.00 | 85 | 1016.6 |
| 20260906124015 | 23 | 76 | 4.8 | 6.4 | 0.00 | 0.00 | 0.00 | 85 | 1016.5 |
| 20260906123844 | 23 | 80 | 6.4 | 6.4 | 0.00 | 0.00 | 0.00 | 85 | 1016.5 |
| 20260906123642 | 24 | 78 | 4.8 | 6.4 | 0.00 | 0.00 | 0.00 | 85 | 1016.5 |
| 20260906123421 | 24 | 75 | 4.8 | 6.4 | 0.00 | 0.00 | 0.00 | 85 | 1016.4 |
| 20260906123220 | 24 | 69 | 4.8 | 4.8 | 0.00 | 0.00 | 0.00 | 85 | 1016.4 |
| 20260906123018 | 24 | 67 | 3.2 | 4.8 | 0.00 | 0.00 | 0.00 | 85 | 1016.5 |
| 20260906122817 | 23 | 54 | 4.8 | 4.8 | 0.00 | 0.00 | 0.00 | 86 | 1016.5 |
| 20260906122635 | 23 | 53 | 4.8 | 4.8 | 0.00 | 0.00 | 0.00 | 86 | 1016.4 |
| 20260906122424 | 23 | 55 | 3.2 | 4.8 | 0.00 | 0.00 | 0.00 | 86 | 1016.3 |
| 20260906122243 | 23 | 62 | 4.8 | 4.8 | 0.00 | 0.00 | 0.00 | 86 | 1016.3 |
| 20260906122021 | 23 | 66 | 3.2 | 4.8 | 0.00 | 0.00 | 0.00 | 86 | 1016.3 |
| 20260906121820 | 23 | 64 | 3.2 | 4.8 | 0.00 | 0.00 | 0.00 | 87 | 1016.2 |
| 20260906121618 | 23 | 54 | 3.2 | 4.8 | 0.00 | 0.00 | 0.00 | 87 | 1016.1 |
| 20260906121417 | 23 | 53 | 3.2 | 4.8 | 0.00 | 0.00 | 0.00 | 87 | 1016.1 |
| 20260906121225 | 23 | 58 | 3.2 | 4.8 | 0.00 | 0.00 | 0.00 | 87 | 1016.3 |
| 20260906121024 | 23 | 58 | 3.2 | 4.8 | 0.00 | 0.00 | 0.00 | 86 | 1016.2 |
| 20260906120823 | 23 | 60 | 3.2 | 3.2 | 0.00 | 0.00 | 0.00 | 86 | 1016.1 |
| 20260906120621 | 23 | 63 | 3.2 | 3.2 | 0.00 | 0.00 | 0.00 | 86 | 1016.2 |
| 20260906120419 | 23 | 53 | 3.2 | 4.8 | 0.00 | 0.00 | 0.00 | 86 | 1016.3 |
| 20260906120218 | 23 | 41 | 3.2 | 4.8 | 0.00 | 0.00 | 0.00 | 86 | 1016.1 |
| 20260906120117 | 23 | 35 | 3.2 | 4.8 | 0.00 | 0.00 | 0.00 | 86 | 1016.2 |
| 20260906115846 | 23 | 38 | 3.2 | 4.8 | 0.00 | 0.00 | 0.00 | 86 | 1016.0 |
| 20260906115624 | 23 | 58 | 3.2 | 3.2 | 0.00 | 0.00 | 0.00 | 86 | 1016.1 |
| 20260906115423 | 23 | 84 | 3.2 | 3.2 | 0.00 | 0.00 | 0.00 | 86 | 1016.0 |
| 20260906115221 | 23 | 76 | 3.2 | 3.2 | 0.00 | 0.00 | 0.00 | 86 | 1016.1 |
| 20260906115020 | 23 | 78 | 3.2 | 3.2 | 0.00 | 0.00 | 0.00 | 86 | 1016.0 |
| 20260906114818 | 23 | 80 | 3.2 | 3.2 | 0.00 | 0.00 | 0.00 | 86 | 1016.1 |
| 20260906114617 | 23 | 82 | 3.2 | 4.8 | 0.00 | 0.00 | 0.00 | 86 | 1016.2 |
| 20260906114425 | 23 | 92 | 4.8 | 4.8 | 0.00 | 0.00 | 0.00 | 86 | 1016.0 |
| 20260906114224 | 23 | 90 | 4.8 | 4.8 | 0.00 | 0.00 | 0.00 | 86 | 1015.9 |
| 20260906114023 | 23 | 93 | 4.8 | 6.4 | 0.00 | 0.00 | 0.00 | 86 | 1016.2 |
| 20260906113841 | 23 | 96 | 3.2 | 4.8 | 0.00 | 0.00 | 0.00 | 86 | 1015.8 |
| 20260906113619 | 23 | 96 | 4.8 | 6.4 | 0.00 | 0.00 | 0.00 | 86 | 1016.1 |
| 20260906113418 | 23 | 97 | 4.8 | 6.4 | 0.00 | 0.00 | 0.00 | 86 | 1016.1 |
| 20260906113216 | 23 | 94 | 4.8 | 6.4 | 0.00 | 0.00 | 0.00 | 86 | 1016.1 |
| 20260906113025 | 23 | 86 | 6.4 | 6.4 | 0.00 | 0.00 | 0.00 | 86 | 1016.1 |
| 20260906112824 | 23 | 84 | 6.4 | 6.4 | 0.00 | 0.00 | 0.00 | 86 | 1016.1 |
| 20260906112622 | 23 | 79 | 4.8 | 6.4 | 0.00 | 0.00 | 0.00 | 86 | 1015.9 |
| 20260906112423 | 23 | 77 | 4.8 | 4.8 | 0.00 | 0.00 | 0.00 | 86 | 1016.0 |
| 20260906112220 | 23 | 73 | 4.8 | 4.8 | 0.00 | 0.00 | 0.00 | 86 | 1015.9 |
| 20260906112018 | 23 | 71 | 3.2 | 4.8 | 0.00 | 0.00 | 0.00 | 85 | 1015.9 |
| 20260906111937 | 23 | 67 | 3.2 | 4.8 | 0.00 | 0.00 | 0.00 | 85 | 1016.0 |
| 20260906111625 | 23 | 64 | 3.2 | 4.8 | 0.00 | 0.00 | 0.00 | 85 | 1016.0 |
| 20260906111504 | 24 | 37 | 4.8 | 6.4 | 0.00 | 0.00 | 0.00 | 85 | 1015.9 |
| 20260906111222 | 24 | 37 | 4.8 | 6.4 | 0.00 | 0.00 | 0.00 | 85 | 1015.9 |
| 20260906111023 | 24 | 37 | 3.2 | 4.8 | 0.00 | 0.00 | 0.00 | 84 | 1015.8 |
| 20260906110819 | 24 | 35 | 3.2 | 4.8 | 0.00 | 0.00 | 0.00 | 85 | 1015.7 |
| 20260906110618 | 24 | 43 | 3.2 | 4.8 | 0.00 | 0.00 | 0.00 | 85 | 1015.8 |
| 20260906110417 | 24 | 37 | 3.2 | 4.8 | 0.00 | 0.00 | 0.00 | 84 | 1016.0 |
| 20260906110225 | 24 | 42 | 4.8 | 4.8 | 0.00 | 0.00 | 0.00 | 84 | 1015.8 |
| 20260906110024 | 24 | 57 | 3.2 | 4.8 | 0.00 | 0.00 | 0.00 | 84 | 1015.6 |
| 20260906105822 | 24 | 66 | 3.2 | 3.2 | 0.00 | 0.00 | 0.00 | 84 | 1015.8 |
| 20260906105621 | 25 | 75 | 3.2 | 4.8 | 0.00 | 0.00 | 0.00 | 83 | 1015.6 |
| 20260906105440 | 25 | 72 | 3.2 | 4.8 | 0.00 | 0.00 | 0.00 | 82 | 1015.5 |
| 20260906105219 | 25 | 87 | 3.2 | 3.2 | 0.00 | 0.00 | 0.00 | 82 | 1015.5 |
| 20260906105016 | 25 | 107 | 4.8 | 6.4 | 0.00 | 0.00 | 0.00 | 83 | 1015.5 |
| 20260906104825 | 25 | 107 | 3.2 | 4.8 | 0.00 | 0.00 | 0.00 | 82 | 1015.4 |
| 20260906104643 | 25 | 122 | 3.2 | 6.4 | 0.00 | 0.00 | 0.00 | 82 | 1015.5 |
| 20260906104422 | 25 | 116 | 4.8 | 4.8 | 0.00 | 0.00 | 0.00 | 82 | 1015.5 |
| 20260906104221 | 25 | 116 | 4.8 | 6.4 | 0.00 | 0.00 | 0.00 | 82 | 1015.4 |
| 20260906104019 | 25 | 104 | 6.4 | 6.4 | 0.00 | 0.00 | 0.00 | 82 | 1015.6 |
| 20260906103818 | 25 | 100 | 4.8 | 6.4 | 0.00 | 0.00 | 0.00 | 82 | 1015.4 |
| 20260906103616 | 25 | 99 | 4.8 | 6.4 | 0.00 | 0.00 | 0.00 | 83 | 1015.6 |
| 20260906103425 | 24 | 88 | 4.8 | 6.4 | 0.00 | 0.00 | 0.00 | 83 | 1015.6 |
| 20260906103224 | 24 | 80 | 4.8 | 6.4 | 0.00 | 0.00 | 0.00 | 83 | 1015.6 |
| 20260906103023 | 24 | 81 | 4.8 | 4.8 | 0.00 | 0.00 | 0.00 | 84 | 1015.5 |
| 20260906102821 | 23 | 78 | 3.2 | 4.8 | 0.00 | 0.00 | 0.00 | 85 | 1015.6 |
| 20260906102619 | 23 | 76 | 4.8 | 4.8 | 0.00 | 0.00 | 0.00 | 85 | 1015.4 |
| 20260906102418 | 23 | 77 | 4.8 | 4.8 | 0.00 | 0.00 | 0.00 | 85 | 1015.5 |
| 20260906102216 | 24 | 78 | 4.8 | 4.8 | 0.00 | 0.00 | 0.00 | 84 | 1015.5 |
| 20260906102025 | 24 | 75 | 3.2 | 4.8 | 0.00 | 0.00 | 0.00 | 84 | 1015.4 |
| 20260906101825 | 24 | 70 | 3.2 | 4.8 | 0.00 | 0.00 | 0.00 | 83 | 1015.5 |
| 20260906101622 | 24 | 62 | 3.2 | 3.2 | 0.00 | 0.00 | 0.00 | 83 | 1015.5 |
| 20260906101423 | 24 | 64 | 3.2 | 4.8 | 0.00 | 0.00 | 0.00 | 83 | 1015.5 |
| 20260906101219 | 24 | 68 | 3.2 | 3.2 | 0.00 | 0.00 | 0.00 | 83 | 1015.5 |
| 20260906101017 | 24 | 68 | 3.2 | 3.2 | 0.00 | 0.00 | 0.00 | 83 | 1015.5 |
| 20260906100856 | 24 | 62 | 3.2 | 3.2 | 0.00 | 0.00 | 0.00 | 84 | 1015.3 |
| 20260906100625 | 24 | 65 | 3.2 | 3.2 | 0.00 | 0.00 | 0.00 | 84 | 1015.5 |
| 20260906100424 | 24 | 70 | 3.2 | 4.8 | 0.00 | 0.00 | 0.00 | 84 | 1015.4 |
| 20260906100242 | 24 | 67 | 3.2 | 4.8 | 0.00 | 0.00 | 0.00 | 83 | 1015.5 |
| 20260906100020 | 24 | 67 | 3.2 | 4.8 | 0.00 | 0.00 | 0.00 | 83 | 1015.4 |
| 20260906095819 | 24 | 68 | 3.2 | 4.8 | 0.00 | 0.00 | 0.00 | 83 | 1015.4 |
| 20260906095617 | 25 | 67 | 3.2 | 4.8 | 0.00 | 0.00 | 0.00 | 82 | 1015.4 |
| 20260906095416 | 25 | 55 | 3.2 | 4.8 | 0.00 | 0.00 | 0.00 | 82 | 1015.5 |
| 20260906095226 | 25 | 62 | 3.2 | 3.2 | 0.00 | 0.00 | 0.00 | 82 | 1015.2 |
| 20260906095023 | 25 | 58 | 3.2 | 3.2 | 0.00 | 0.00 | 0.00 | 82 | 1015.2 |
| 20260906094822 | 25 | 56 | 3.2 | 4.8 | 0.00 | 0.00 | 0.00 | 82 | 1015.2 |
| 20260906094621 | 24 | 71 | 3.2 | 4.8 | 0.00 | 0.00 | 0.00 | 83 | 1015.2 |
| 20260906094439 | 24 | 71 | 4.8 | 6.4 | 0.00 | 0.00 | 0.00 | 83 | 1015.4 |
| 20260906094217 | 24 | 72 | 3.2 | 4.8 | 0.00 | 0.00 | 0.00 | 83 | 1015.2 |
| 20260906094016 | 24 | 74 | 3.2 | 4.8 | 0.00 | 0.00 | 0.00 | 83 | 1015.4 |
| 20260906093824 | 24 | 71 | 3.2 | 4.8 | 0.00 | 0.00 | 0.00 | 83 | 1015.4 |
| 20260906093643 | 25 | 78 | 4.8 | 4.8 | 0.00 | 0.00 | 0.00 | 82 | 1015.2 |
| 20260906093422 | 25 | 68 | 3.2 | 4.8 | 0.00 | 0.00 | 0.00 | 81 | 1015.2 |
| 20260906093220 | 25 | 73 | 3.2 | 4.8 | 0.00 | 0.00 | 0.00 | 80 | 1015.2 |
| 20260906093019 | 25 | 73 | 1.6 | 3.2 | 0.00 | 0.00 | 0.00 | 81 | 1015.3 |
| 20260906092818 | 25 | 60 | 1.6 | 4.8 | 0.00 | 0.00 | 0.00 | 80 | 1015.2 |
| 20260906092616 | 25 | 149 | 1.6 | 3.2 | 0.00 | 0.00 | 0.00 | 82 | 1015.3 |
| 20260906092425 | 25 | 51 | 3.2 | 3.2 | 0.00 | 0.00 | 0.00 | 81 | 1015.2 |
| 20260906092223 | 25 | 34 | 3.2 | 4.8 | 0.00 | 0.00 | 0.00 | 81 | 1015.4 |
| 20260906092022 | 25 | 27 | 4.8 | 4.8 | 0.00 | 0.00 | 0.00 | 81 | 1015.4 |
| 20260906091820 | 25 | 21 | 3.2 | 6.4 | 0.00 | 0.00 | 0.00 | 81 | 1015.3 |
| 20260906091619 | 25 | 23 | 4.8 | 6.4 | 0.00 | 0.00 | 0.00 | 81 | 1015.4 |
| 20260906091417 | 25 | 34 | 3.2 | 4.8 | 0.00 | 0.00 | 0.00 | 82 | 1015.4 |
| 20260906091216 | 25 | 28 | 4.8 | 4.8 | 0.00 | 0.00 | 0.00 | 82 | 1015.5 |
| 20260906091045 | 25 | 24 | 3.2 | 4.8 | 0.00 | 0.00 | 0.00 | 82 | 1015.3 |
| 20260906090823 | 25 | 4 | 3.2 | 4.8 | 0.00 | 0.00 | 0.00 | 82 | 1015.5 |
| 20260906090702 | 25 | 4 | 4.8 | 6.4 | 0.00 | 0.00 | 0.00 | 82 | 1015.3 |
| 20260906090420 | 25 | 9 | 4.8 | 6.4 | 0.00 | 0.00 | 0.00 | 81 | 1015.5 |
| 20260906090218 | 25 | 16 | 4.8 | 4.8 | 0.00 | 0.00 | 0.00 | 81 | 1015.4 |
| 20260906090017 | 25 | 21 | 4.8 | 6.4 | 0.00 | 0.00 | 0.00 | 81 | 1015.2 |
| 20260906085816 | 25 | 21 | 4.8 | 4.8 | 0.00 | 0.00 | 0.00 | 82 | 1015.2 |
| 20260906085624 | 25 | 360 | 3.2 | 4.8 | 0.00 | 0.00 | 0.00 | 81 | 1015.1 |
| 20260906085423 | 25 | 5 | 3.2 | 3.2 | 0.00 | 0.00 | 0.00 | 81 | 1015.1 |
| 20260906085221 | 25 | 15 | 3.2 | 3.2 | 0.00 | 0.00 | 0.00 | 80 | 1015.1 |
| 20260906085021 | 25 | 44 | 3.2 | 4.8 | 0.00 | 0.00 | 0.00 | 80 | 1014.9 |
| 20260906084819 | 25 | 79 | 3.2 | 3.2 | 0.00 | 0.00 | 0.00 | 80 | 1015.1 |
| 20260906084618 | 25 | 82 | 3.2 | 3.2 | 0.00 | 0.00 | 0.00 | 80 | 1015.1 |
| 20260906084416 | 25 | 88 | 3.2 | 3.2 | 0.00 | 0.00 | 0.00 | 80 | 1015.0 |
| 20260906084224 | 25 | 86 | 3.2 | 3.2 | 0.00 | 0.00 | 0.00 | 80 | 1015.0 |
| 20260906084025 | 25 | 85 | 1.6 | 3.2 | 0.00 | 0.00 | 0.00 | 80 | 1014.8 |
| 20260906083841 | 25 | 77 | 1.6 | 3.2 | 0.00 | 0.00 | 0.00 | 79 | 1014.9 |
| 20260906083640 | 25 | 83 | 3.2 | 4.8 | 0.00 | 0.00 | 0.00 | 80 | 1014.9 |
| 20260906083438 | 25 | 85 | 3.2 | 4.8 | 0.00 | 0.00 | 0.00 | 81 | 1015.1 |
| 20260906083217 | 25 | 78 | 3.2 | 4.8 | 0.00 | 0.00 | 0.00 | 80 | 1015.1 |
| 20260906083015 | 25 | 72 | 3.2 | 4.8 | 0.00 | 0.00 | 0.00 | 80 | 1014.9 |
| 20260906082844 | 25 | 74 | 3.2 | 4.8 | 0.00 | 0.00 | 0.00 | 80 | 1014.9 |
| 20260906082703 | 26 | 46 | 3.2 | 4.8 | 0.00 | 0.00 | 0.00 | 79 | 1014.9 |
| 20260906082421 | 26 | 47 | 3.2 | 4.8 | 0.00 | 0.00 | 0.00 | 79 | 1014.9 |
| 20260906082220 | 26 | 59 | 1.6 | 3.2 | 0.00 | 0.00 | 0.00 | 79 | 1014.9 |
| 20260906082039 | 26 | 84 | 1.6 | 3.2 | 0.00 | 0.00 | 0.00 | 78 | 1014.9 |
| 20260906081817 | 26 | 95 | 1.6 | 3.2 | 0.00 | 0.00 | 0.00 | 78 | 1014.9 |
| 20260906081616 | 26 | 112 | 3.2 | 4.8 | 0.00 | 0.00 | 0.00 | 78 | 1014.9 |
| 20260906081424 | 26 | 114 | 4.8 | 6.4 | 0.00 | 0.00 | 0.00 | 78 | 1014.9 |
| 20260906081243 | 26 | 123 | 4.8 | 6.4 | 0.00 | 0.00 | 0.00 | 78 | 1014.8 |
| 20260906081042 | 26 | 128 | 4.8 | 6.4 | 0.00 | 0.00 | 0.00 | 78 | 1014.8 |
| 20260906080820 | 26 | 133 | 6.4 | 8.0 | 0.00 | 0.00 | 0.00 | 78 | 1014.7 |
| 20260906080619 | 26 | 142 | 8.0 | 9.7 | 0.00 | 0.00 | 0.00 | 78 | 1014.8 |
| 20260906080437 | 26 | 140 | 6.4 | 8.0 | 0.00 | 0.00 | 0.00 | 78 | 1014.9 |
| 20260906080236 | 26 | 144 | 8.0 | 9.7 | 0.00 | 0.00 | 0.00 | 78 | 1014.9 |
| 20260906080024 | 26 | 135 | 8.0 | 9.7 | 0.00 | 0.00 | 0.00 | 78 | 1014.9 |
| 20260906075823 | 26 | 122 | 8.0 | 9.7 | 0.00 | 0.00 | 0.00 | 78 | 1015.1 |
| 20260906075622 | 26 | 120 | 8.0 | 9.7 | 0.00 | 0.00 | 0.00 | 78 | 1014.7 |
| 20260906075420 | 26 | 123 | 8.0 | 9.7 | 0.00 | 0.00 | 0.00 | 77 | 1014.9 |
| 20260906075218 | 26 | 123 | 8.0 | 8.0 | 0.00 | 0.00 | 0.00 | 77 | 1014.9 |
| 20260906075017 | 26 | 117 | 6.4 | 8.0 | 0.00 | 0.00 | 0.00 | 77 | 1014.9 |
| 20260906074825 | 26 | 117 | 8.0 | 9.7 | 0.00 | 0.00 | 0.00 | 77 | 1014.7 |
| 20260906074624 | 26 | 111 | 6.4 | 8.0 | 0.00 | 0.00 | 0.00 | 77 | 1014.8 |
| 20260906074422 | 26 | 116 | 6.4 | 8.0 | 0.00 | 0.00 | 0.00 | 77 | 1014.8 |
| 20260906074221 | 26 | 124 | 4.8 | 6.4 | 0.00 | 0.00 | 0.00 | 77 | 1014.7 |
| 20260906074019 | 26 | 132 | 4.8 | 4.8 | 0.00 | 0.00 | 0.00 | 77 | 1014.7 |
| 20260906073818 | 26 | 138 | 4.8 | 4.8 | 0.00 | 0.00 | 0.00 | 77 | 1014.9 |
| 20260906073617 | 26 | 147 | 3.2 | 4.8 | 0.00 | 0.00 | 0.00 | 77 | 1014.9 |
| 20260906073505 | 26 | 159 | 3.2 | 4.8 | 0.00 | 0.00 | 0.00 | 77 | 1014.8 |
| 20260906073224 | 26 | 157 | 3.2 | 3.2 | 0.00 | 0.00 | 0.00 | 77 | 1014.8 |
| 20260906073023 | 26 | 153 | 3.2 | 4.8 | 0.00 | 0.00 | 0.00 | 76 | 1014.8 |
| 20260906072821 | 26 | 157 | 3.2 | 4.8 | 0.00 | 0.00 | 0.00 | 76 | 1015.1 |
| 20260906072619 | 26 | 151 | 4.8 | 6.4 | 0.00 | 0.00 | 0.00 | 76 | 1015.0 |
| 20260906072418 | 26 | 148 | 4.8 | 6.4 | 0.00 | 0.00 | 0.00 | 76 | 1014.9 |
| 20260906072217 | 26 | 146 | 4.8 | 6.4 | 0.00 | 0.00 | 0.00 | 76 | 1015.0 |
| 20260906072025 | 26 | 154 | 4.8 | 6.4 | 0.00 | 0.00 | 0.00 | 76 | 1015.1 |
| 20260906071824 | 26 | 160 | 4.8 | 4.8 | 0.00 | 0.00 | 0.00 | 76 | 1015.1 |
| 20260906071622 | 26 | 152 | 3.2 | 3.2 | 0.00 | 0.00 | 0.00 | 75 | 1014.9 |
| 20260906071421 | 26 | 149 | 3.2 | 3.2 | 0.00 | 0.00 | 0.00 | 75 | 1015.1 |
| 20260906071220 | 26 | 135 | 3.2 | 4.8 | 0.00 | 0.00 | 0.00 | 75 | 1015.1 |
| 20260906071018 | 27 | 120 | 3.2 | 4.8 | 0.00 | 0.00 | 0.00 | 75 | 1015.1 |
| 20260906070817 | 27 | 121 | 3.2 | 4.8 | 0.00 | 0.00 | 0.00 | 75 | 1015.1 |
| 20260906070625 | 26 | 111 | 3.2 | 3.2 | 0.00 | 0.00 | 0.00 | 75 | 1015.1 |
| 20260906070426 | 26 | 110 | 3.2 | 3.2 | 0.00 | 0.00 | 0.00 | 75 | 1015.2 |
| 20260906070222 | 26 | 109 | 3.2 | 3.2 | 0.00 | 0.00 | 0.00 | 75 | 1015.2 |
| 20260906070021 | 26 | 112 | 1.6 | 3.2 | 0.00 | 0.00 | 0.00 | 76 | 1015.0 |
| 20260906065819 | 26 | 100 | 1.6 | 3.2 | 0.00 | 0.00 | 0.00 | 76 | 1015.1 |
| 20260906065639 | 26 | 83 | 1.6 | 3.2 | 0.00 | 0.00 | 0.00 | 75 | 1015.3 |
| 20260906065417 | 26 | 56 | 1.6 | 3.2 | 0.00 | 0.00 | 0.00 | 75 | 1015.2 |
| 20260906065226 | 26 | 59 | 1.6 | 3.2 | 0.00 | 0.00 | 0.00 | 75 | 1015.3 |
| 20260906065024 | 26 | 51 | 3.2 | 3.2 | 0.00 | 0.00 | 0.00 | 75 | 1015.1 |
| 20260906064822 | 26 | 46 | 3.2 | 3.2 | 0.00 | 0.00 | 0.00 | 75 | 1015.4 |
| 20260906064621 | 26 | 93 | 1.6 | 1.6 | 0.00 | 0.00 | 0.00 | 75 | 1015.3 |
| 20260906064419 | 26 | 109 | 1.6 | 3.2 | 0.00 | 0.00 | 0.00 | 75 | 1015.3 |
| 20260906064218 | 27 | 123 | 0.0 | 3.2 | 0.00 | 0.00 | 0.00 | 74 | 1015.2 |
| 20260906064016 | 27 | 120 | 1.6 | 3.2 | 0.00 | 0.00 | 0.00 | 74 | 1015.3 |
| 20260906063845 | 27 | 119 | 0.0 | 1.6 | 0.00 | 0.00 | 0.00 | 73 | 1015.2 |
| 20260906063624 | 27 | 146 | 1.6 | 3.2 | 0.00 | 0.00 | 0.00 | 73 | 1015.1 |
| 20260906063442 | 27 | 157 | 3.2 | 4.8 | 0.00 | 0.00 | 0.00 | 73 | 1015.2 |
| 20260906063221 | 27 | 156 | 4.8 | 6.4 | 0.00 | 0.00 | 0.00 | 73 | 1015.1 |
| 20260906063039 | 27 | 138 | 4.8 | 6.4 | 0.00 | 0.00 | 0.00 | 73 | 1015.2 |
| 20260906062818 | 27 | 125 | 4.8 | 6.4 | 0.00 | 0.00 | 0.00 | 73 | 1015.4 |
| 20260906062617 | 27 | 114 | 4.8 | 6.4 | 0.00 | 0.00 | 0.00 | 73 | 1015.3 |
| 20260906062425 | 27 | 108 | 6.4 | 6.4 | 0.00 | 0.00 | 0.00 | 73 | 1015.2 |
| 20260906062244 | 27 | 125 | 4.8 | 6.4 | 0.00 | 0.00 | 0.00 | 73 | 1015.2 |
| 20260906062022 | 27 | 140 | 4.8 | 6.4 | 0.00 | 0.00 | 0.00 | 72 | 1015.4 |
| 20260906061821 | 27 | 147 | 6.4 | 8.0 | 0.00 | 0.00 | 0.00 | 72 | 1015.2 |
| 20260906061639 | 27 | 151 | 6.4 | 8.0 | 0.00 | 0.00 | 0.00 | 72 | 1015.3 |
| 20260906061418 | 27 | 152 | 6.4 | 8.0 | 0.00 | 0.00 | 0.00 | 72 | 1015.1 |
| 20260906061216 | 27 | 144 | 6.4 | 8.0 | 0.00 | 0.00 | 0.00 | 72 | 1015.3 |
| 20260906061026 | 27 | 138 | 8.0 | 9.7 | 0.00 | 0.00 | 0.00 | 72 | 1015.1 |
| 20260906060845 | 27 | 135 | 8.0 | 9.7 | 0.00 | 0.00 | 0.00 | 72 | 1015.3 |
| 20260906060622 | 27 | 145 | 8.0 | 9.7 | 0.00 | 0.00 | 0.00 | 71 | 1015.2 |
| 20260906060421 | 27 | 146 | 6.4 | 8.0 | 0.00 | 0.00 | 0.00 | 71 | 1015.4 |
| 20260906060222 | 27 | 158 | 6.4 | 8.0 | 0.00 | 0.00 | 0.00 | 71 | 1015.2 |
| 20260906060018 | 27 | 160 | 4.8 | 6.4 | 0.00 | 0.00 | 0.00 | 71 | 1015.3 |
| 20260906055816 | 27 | 154 | 6.4 | 8.0 | 0.00 | 0.00 | 0.00 | 71 | 1015.3 |
| 20260906055625 | 27 | 141 | 6.4 | 8.0 | 0.00 | 0.00 | 0.00 | 71 | 1015.3 |
| 20260906055424 | 27 | 141 | 8.0 | 9.7 | 0.00 | 0.00 | 0.00 | 71 | 1015.4 |
| 20260906055223 | 27 | 140 | 6.4 | 8.0 | 0.00 | 0.00 | 0.00 | 71 | 1015.4 |
| 20260906055023 | 27 | 137 | 6.4 | 6.4 | 0.00 | 0.00 | 0.00 | 71 | 1015.4 |
| 20260906054819 | 27 | 139 | 6.4 | 8.0 | 0.00 | 0.00 | 0.00 | 70 | 1015.1 |
| 20260906054638 | 27 | 142 | 6.4 | 6.4 | 0.00 | 0.00 | 0.00 | 70 | 1015.2 |
| 20260906054416 | 27 | 159 | 6.4 | 6.4 | 0.00 | 0.00 | 0.00 | 70 | 1015.2 |
| 20260906054245 | 27 | 166 | 4.8 | 6.4 | 0.00 | 0.00 | 0.00 | 70 | 1015.1 |
| 20260906054044 | 27 | 181 | 3.2 | 4.8 | 0.00 | 0.00 | 0.00 | 70 | 1015.2 |
| 20260906053822 | 27 | 185 | 3.2 | 4.8 | 0.00 | 0.00 | 0.00 | 70 | 1015.0 |
| 20260906053621 | 27 | 188 | 3.2 | 4.8 | 0.00 | 0.00 | 0.00 | 70 | 1015.2 |
| 20260906053439 | 27 | 187 | 3.2 | 3.2 | 0.00 | 0.00 | 0.00 | 70 | 1015.3 |
| 20260906053218 | 27 | 168 | 3.2 | 3.2 | 0.00 | 0.00 | 0.00 | 70 | 1015.1 |
| 20260906053016 | 27 | 183 | 3.2 | 4.8 | 0.00 | 0.00 | 0.00 | 70 | 1015.3 |
| 20260906052825 | 27 | 186 | 3.2 | 4.8 | 0.00 | 0.00 | 0.00 | 70 | 1015.1 |
| 20260906052623 | 28 | 194 | 3.2 | 4.8 | 0.00 | 0.00 | 0.00 | 69 | 1015.2 |
| 20260906052422 | 28 | 175 | 3.2 | 4.8 | 0.00 | 0.00 | 0.00 | 69 | 1015.4 |
| 20260906052221 | 28 | 163 | 4.8 | 6.4 | 0.00 | 0.00 | 0.00 | 69 | 1015.2 |
| 20260906052019 | 28 | 154 | 4.8 | 6.4 | 0.00 | 0.00 | 0.00 | 69 | 1015.4 |
| 20260906051818 | 28 | 154 | 4.8 | 6.4 | 0.00 | 0.00 | 0.00 | 69 | 1015.4 |
| 20260906051617 | 28 | 153 | 4.8 | 6.4 | 0.00 | 0.00 | 0.00 | 69 | 1015.4 |
| 20260906051425 | 28 | 154 | 4.8 | 6.4 | 0.00 | 0.00 | 0.00 | 69 | 1015.4 |
| 20260906051246 | 28 | 159 | 3.2 | 4.8 | 0.00 | 0.00 | 0.00 | 69 | 1015.4 |
| 20260906051042 | 28 | 174 | 3.2 | 3.2 | 0.00 | 0.00 | 0.00 | 69 | 1015.5 |
| 20260906050821 | 28 | 167 | 1.6 | 3.2 | 0.00 | 0.00 | 0.00 | 69 | 1015.3 |
| 20260906050619 | 28 | 173 | 1.6 | 3.2 | 0.00 | 0.00 | 0.00 | 69 | 1015.4 |
| 20260906050418 | 28 | 149 | 3.2 | 4.8 | 0.00 | 0.00 | 0.00 | 68 | 1015.4 |
| 20260906050216 | 28 | 151 | 4.8 | 4.8 | 0.00 | 0.00 | 0.00 | 68 | 1015.5 |
| 20260906050045 | 28 | 145 | 4.8 | 4.8 | 0.00 | 0.00 | 0.00 | 68 | 1015.5 |
| 20260906045823 | 28 | 144 | 4.8 | 6.4 | 0.00 | 0.00 | 0.00 | 68 | 1015.3 |
| 20260906045622 | 28 | 138 | 4.8 | 6.4 | 0.00 | 0.00 | 0.00 | 68 | 1015.4 |
| 20260906045421 | 28 | 141 | 4.8 | 6.4 | 0.00 | 0.00 | 0.00 | 68 | 1015.4 |
| 20260906045239 | 28 | 141 | 4.8 | 6.4 | 0.00 | 0.00 | 0.00 | 67 | 1015.3 |
| 20260906045018 | 28 | 142 | 4.8 | 6.4 | 0.00 | 0.00 | 0.00 | 67 | 1015.3 |
| 20260906044816 | 28 | 145 | 6.4 | 8.0 | 0.00 | 0.00 | 0.00 | 67 | 1015.4 |
| 20260906044625 | 28 | 151 | 6.4 | 8.0 | 0.00 | 0.00 | 0.00 | 67 | 1015.2 |
| 20260906044423 | 28 | 148 | 4.8 | 6.4 | 0.00 | 0.00 | 0.00 | 67 | 1015.2 |
| 20260906044222 | 28 | 146 | 4.8 | 6.4 | 0.00 | 0.00 | 0.00 | 66 | 1015.1 |
| 20260906044020 | 28 | 154 | 6.4 | 6.4 | 0.00 | 0.00 | 0.00 | 66 | 1015.3 |
| 20260906043819 | 28 | 158 | 4.8 | 6.4 | 0.00 | 0.00 | 0.00 | 67 | 1015.4 |
| 20260906043618 | 28 | 160 | 4.8 | 6.4 | 0.00 | 0.00 | 0.00 | 67 | 1015.3 |
| 20260906043416 | 28 | 160 | 4.8 | 6.4 | 0.00 | 0.00 | 0.00 | 66 | 1015.2 |
| 20260906043225 | 28 | 158 | 4.8 | 6.4 | 0.00 | 0.00 | 0.00 | 66 | 1015.2 |
| 20260906043023 | 28 | 151 | 4.8 | 6.4 | 0.00 | 0.00 | 0.00 | 66 | 1015.4 |
| 20260906042822 | 28 | 140 | 4.8 | 6.4 | 0.00 | 0.00 | 0.00 | 66 | 1015.4 |
| 20260906042621 | 28 | 139 | 4.8 | 6.4 | 0.00 | 0.00 | 0.00 | 66 | 1015.5 |
| 20260906042419 | 28 | 139 | 4.8 | 6.4 | 0.00 | 0.00 | 0.00 | 66 | 1015.3 |
| 20260906042218 | 28 | 149 | 4.8 | 6.4 | 0.00 | 0.00 | 0.00 | 66 | 1015.5 |
| 20260906042016 | 28 | 150 | 4.8 | 6.4 | 0.00 | 0.00 | 0.00 | 65 | 1015.4 |
| 20260906041825 | 29 | 141 | 4.8 | 6.4 | 0.00 | 0.00 | 0.00 | 65 | 1015.5 |
| 20260906041623 | 29 | 140 | 6.4 | 9.7 | 0.00 | 0.00 | 0.00 | 65 | 1015.2 |
| 20260906041422 | 29 | 137 | 8.0 | 9.7 | 0.00 | 0.00 | 0.00 | 65 | 1015.4 |
| 20260906041240 | 29 | 135 | 8.0 | 11.3 | 0.00 | 0.00 | 0.00 | 65 | 1015.3 |
| 20260906041019 | 29 | 145 | 8.0 | 9.7 | 0.00 | 0.00 | 0.00 | 65 | 1015.5 |
| 20260906040817 | 29 | 138 | 8.0 | 11.3 | 0.00 | 0.00 | 0.00 | 64 | 1015.5 |
| 20260906040617 | 29 | 136 | 8.0 | 11.3 | 0.00 | 0.00 | 0.00 | 64 | 1015.5 |
| 20260906040425 | 29 | 142 | 8.0 | 11.3 | 0.00 | 0.00 | 0.00 | 64 | 1015.5 |
| 20260906040224 | 29 | 144 | 8.0 | 9.7 | 0.00 | 0.00 | 0.00 | 64 | 1015.5 |
| 20260906040022 | 29 | 147 | 11.3 | 14.5 | 0.00 | 0.00 | 0.00 | 63 | 1015.5 |
| 20260906035821 | 29 | 147 | 8.0 | 9.7 | 0.00 | 0.00 | 0.00 | 63 | 1015.4 |
| 20260906035619 | 29 | 148 | 9.7 | 12.9 | 0.00 | 0.00 | 0.00 | 63 | 1015.3 |
| 20260906035417 | 29 | 147 | 11.3 | 14.5 | 0.00 | 0.00 | 0.00 | 63 | 1015.7 |
| 20260906035216 | 30 | 151 | 11.3 | 17.7 | 0.00 | 0.00 | 0.00 | 63 | 1015.5 |
| 20260906035025 | 30 | 149 | 9.7 | 14.5 | 0.00 | 0.00 | 0.00 | 62 | 1015.5 |
| 20260906034823 | 30 | 143 | 11.3 | 14.5 | 0.00 | 0.00 | 0.00 | 62 | 1015.3 |
| 20260906034622 | 30 | 143 | 8.0 | 11.3 | 0.00 | 0.00 | 0.00 | 62 | 1015.4 |
| 20260906034420 | 30 | 144 | 12.9 | 17.7 | 0.00 | 0.00 | 0.00 | 61 | 1015.4 |
| 20260906034259 | 30 | 142 | 9.7 | 12.9 | 0.00 | 0.00 | 0.00 | 61 | 1015.3 |
| 20260906034018 | 30 | 142 | 11.3 | 17.7 | 0.00 | 0.00 | 0.00 | 61 | 1015.1 |
| 20260906033817 | 30 | 138 | 11.3 | 16.1 | 0.00 | 0.00 | 0.00 | 60 | 1015.2 |
| 20260906033625 | 30 | 132 | 11.3 | 16.1 | 0.00 | 0.00 | 0.00 | 60 | 1015.3 |
| 20260906033423 | 30 | 134 | 11.3 | 14.5 | 0.00 | 0.00 | 0.00 | 60 | 1015.1 |
| 20260906033222 | 30 | 132 | 11.3 | 16.1 | 0.00 | 0.00 | 0.00 | 59 | 1015.4 |
| 20260906033021 | 30 | 139 | 11.3 | 16.1 | 0.00 | 0.00 | 0.00 | 59 | 1015.2 |
| 20260906032819 | 30 | 131 | 11.3 | 14.5 | 0.00 | 0.00 | 0.00 | 58 | 1015.2 |
| 20260906032638 | 30 | 138 | 11.3 | 16.1 | 0.00 | 0.00 | 0.00 | 58 | 1015.3 |
| 20260906032416 | 30 | 139 | 11.3 | 16.1 | 0.00 | 0.00 | 0.00 | 57 | 1015.2 |
| 20260906032225 | 30 | 136 | 11.3 | 17.7 | 0.00 | 0.00 | 0.00 | 57 | 1015.1 |
| 20260906032024 | 30 | 139 | 12.9 | 17.7 | 0.00 | 0.00 | 0.00 | 56 | 1015.4 |
| 20260906031822 | 30 | 145 | 11.3 | 14.5 | 0.00 | 0.00 | 0.00 | 55 | 1015.1 |
| 20260906031620 | 30 | 148 | 9.7 | 11.3 | 0.00 | 0.00 | 0.00 | 55 | 1015.2 |
| 20260906031419 | 30 | 142 | 8.0 | 9.7 | 0.00 | 0.00 | 0.00 | 54 | 1015.0 |
| 20260906031217 | 31 | 135 | 11.3 | 16.1 | 0.00 | 0.00 | 0.00 | 54 | 1015.1 |
| 20260906031016 | 31 | 137 | 11.3 | 14.5 | 0.00 | 0.00 | 0.00 | 54 | 1015.0 |
| 20260906030825 | 31 | 132 | 12.9 | 16.1 | 0.00 | 0.00 | 0.00 | 53 | 1015.0 |
| 20260906030624 | 31 | 132 | 12.9 | 17.7 | 0.00 | 0.00 | 0.00 | 53 | 1015.0 |
| 20260906030422 | 31 | 119 | 8.0 | 9.7 | 0.00 | 0.00 | 0.00 | 54 | 1014.9 |
| 20260906030221 | 30 | 106 | 8.0 | 9.7 | 0.00 | 0.00 | 0.00 | 55 | 1014.7 |
| 20260906030019 | 30 | 92 | 4.8 | 4.8 | 0.00 | 0.00 | 0.00 | 55 | 1015.0 |
| 20260906025817 | 30 | 88 | 4.8 | 4.8 | 0.00 | 0.00 | 0.00 | 56 | 1014.9 |
| 20260906025616 | 30 | 81 | 4.8 | 4.8 | 0.00 | 0.00 | 0.00 | 56 | 1014.9 |
| 20260906025425 | 30 | 76 | 3.2 | 4.8 | 0.00 | 0.00 | 0.00 | 55 | 1014.9 |
| 20260906025223 | 30 | 76 | 3.2 | 4.8 | 0.00 | 0.00 | 0.00 | 55 | 1015.1 |
| 20260906025042 | 31 | 80 | 3.2 | 4.8 | 0.00 | 0.00 | 0.00 | 54 | 1014.9 |
| 20260906024821 | 31 | 85 | 4.8 | 4.8 | 0.00 | 0.00 | 0.00 | 53 | 1015.0 |
| 20260906024619 | 31 | 90 | 3.2 | 4.8 | 0.00 | 0.00 | 0.00 | 53 | 1015.0 |
| 20260906024417 | 31 | 103 | 4.8 | 6.4 | 0.00 | 0.00 | 0.00 | 52 | 1014.9 |
| 20260906024216 | 31 | 111 | 4.8 | 6.4 | 0.00 | 0.00 | 0.00 | 52 | 1014.9 |
| 20260906024025 | 31 | 114 | 4.8 | 6.4 | 0.00 | 0.00 | 0.00 | 52 | 1014.8 |
| 20260906023904 | 31 | 117 | 4.8 | 4.8 | 0.00 | 0.00 | 0.00 | 52 | 1014.8 |
| 20260906023622 | 31 | 114 | 4.8 | 4.8 | 0.00 | 0.00 | 0.00 | 52 | 1014.8 |
| 20260906023421 | 31 | 110 | 4.8 | 6.4 | 0.00 | 0.00 | 0.00 | 52 | 1014.7 |
| 20260906023219 | 31 | 114 | 4.8 | 6.4 | 0.00 | 0.00 | 0.00 | 51 | 1014.7 |
| 20260906023018 | 31 | 112 | 6.4 | 6.4 | 0.00 | 0.00 | 0.00 | 51 | 1014.6 |
| 20260906022816 | 31 | 104 | 6.4 | 8.0 | 0.00 | 0.00 | 0.00 | 51 | 1014.4 |
| 20260906022625 | 32 | 103 | 6.4 | 8.0 | 0.00 | 0.00 | 0.00 | 51 | 1014.4 |
| 20260906022424 | 32 | 109 | 6.4 | 6.4 | 0.00 | 0.00 | 0.00 | 51 | 1014.5 |
| 20260906022222 | 32 | 108 | 6.4 | 8.0 | 0.00 | 0.00 | 0.00 | 51 | 1014.4 |
| 20260906022020 | 32 | 111 | 8.0 | 8.0 | 0.00 | 0.00 | 0.00 | 51 | 1014.3 |
| 20260906021839 | 32 | 105 | 6.4 | 9.7 | 0.00 | 0.00 | 0.00 | 50 | 1014.3 |
| 20260906021618 | 32 | 107 | 8.0 | 9.7 | 0.00 | 0.00 | 0.00 | 50 | 1014.4 |
| 20260906021437 | 32 | 106 | 8.0 | 9.7 | 0.00 | 0.00 | 0.00 | 50 | 1014.3 |
| 20260906021225 | 32 | 110 | 9.7 | 9.7 | 0.00 | 0.00 | 0.00 | 50 | 1014.3 |
| 20260906021023 | 32 | 109 | 8.0 | 9.7 | 0.00 | 0.00 | 0.00 | 50 | 1014.2 |
| 20260906020822 | 32 | 106 | 8.0 | 9.7 | 0.00 | 0.00 | 0.00 | 50 | 1014.2 |
| 20260906020620 | 32 | 113 | 6.4 | 8.0 | 0.00 | 0.00 | 0.00 | 50 | 1014.3 |
| 20260906020439 | 32 | 115 | 6.4 | 8.0 | 0.00 | 0.00 | 0.00 | 50 | 1014.2 |
| 20260906020238 | 32 | 110 | 6.4 | 8.0 | 0.00 | 0.00 | 0.00 | 50 | 1014.2 |
| 20260906020016 | 32 | 116 | 6.4 | 8.0 | 0.00 | 0.00 | 0.00 | 50 | 1014.3 |
| 20260906015825 | 32 | 117 | 6.4 | 9.7 | 0.00 | 0.00 | 0.00 | 50 | 1014.2 |
| 20260906015624 | 32 | 117 | 6.4 | 8.0 | 0.00 | 0.00 | 0.00 | 50 | 1014.1 |
| 20260906015423 | 32 | 116 | 6.4 | 8.0 | 0.00 | 0.00 | 0.00 | 50 | 1014.1 |
| 20260906015221 | 32 | 111 | 6.4 | 8.0 | 0.00 | 0.00 | 0.00 | 50 | 1014.1 |
| 20260906015039 | 32 | 120 | 6.4 | 8.0 | 0.00 | 0.00 | 0.00 | 50 | 1014.0 |
| 20260906014818 | 32 | 116 | 6.4 | 8.0 | 0.00 | 0.00 | 0.00 | 50 | 1014.1 |
| 20260906014616 | 32 | 113 | 6.4 | 8.0 | 0.00 | 0.00 | 0.00 | 50 | 1014.1 |
| 20260906014426 | 32 | 112 | 6.4 | 9.7 | 0.00 | 0.00 | 0.00 | 49 | 1014.1 |
| 20260906014224 | 32 | 111 | 8.0 | 9.7 | 0.00 | 0.00 | 0.00 | 49 | 1014.1 |
| 20260906014022 | 32 | 107 | 6.4 | 8.0 | 0.00 | 0.00 | 0.00 | 49 | 1014.0 |
| 20260906013841 | 32 | 111 | 8.0 | 9.7 | 0.00 | 0.00 | 0.00 | 49 | 1014.0 |
| 20260906013620 | 32 | 107 | 8.0 | 9.7 | 0.00 | 0.00 | 0.00 | 49 | 1014.1 |
| 20260906013418 | 32 | 106 | 6.4 | 9.7 | 0.00 | 0.00 | 0.00 | 49 | 1013.9 |
| 20260906013219 | 32 | 112 | 8.0 | 9.7 | 0.00 | 0.00 | 0.00 | 49 | 1013.8 |
| 20260906013025 | 32 | 109 | 8.0 | 9.7 | 0.00 | 0.00 | 0.00 | 49 | 1013.9 |
| 20260906012823 | 32 | 113 | 6.4 | 8.0 | 0.00 | 0.00 | 0.00 | 50 | 1013.8 |
| 20260906012642 | 32 | 119 | 6.4 | 8.0 | 0.00 | 0.00 | 0.00 | 49 | 1014.0 |
| 20260906012420 | 32 | 124 | 6.4 | 8.0 | 0.00 | 0.00 | 0.00 | 49 | 1013.8 |
| 20260906012239 | 32 | 124 | 8.0 | 9.7 | 0.00 | 0.00 | 0.00 | 49 | 1013.9 |
| 20260906012018 | 32 | 124 | 6.4 | 8.0 | 0.00 | 0.00 | 0.00 | 49 | 1013.8 |
| 20260906011817 | 32 | 126 | 8.0 | 9.7 | 0.00 | 0.00 | 0.00 | 49 | 1013.9 |
| 20260906011625 | 32 | 130 | 8.0 | 8.0 | 0.00 | 0.00 | 0.00 | 49 | 1013.8 |
| 20260906011423 | 32 | 130 | 6.4 | 8.0 | 0.00 | 0.00 | 0.00 | 49 | 1013.8 |
| 20260906011222 | 32 | 129 | 6.4 | 8.0 | 0.00 | 0.00 | 0.00 | 49 | 1013.7 |
| 20260906011020 | 32 | 130 | 6.4 | 8.0 | 0.00 | 0.00 | 0.00 | 48 | 1013.7 |
| 20260906010840 | 32 | 123 | 6.4 | 8.0 | 0.00 | 0.00 | 0.00 | 48 | 1013.7 |
| 20260906010618 | 32 | 126 | 6.4 | 8.0 | 0.00 | 0.00 | 0.00 | 48 | 1013.7 |
| 20260906010416 | 32 | 122 | 4.8 | 6.4 | 0.00 | 0.00 | 0.00 | 48 | 1013.9 |
| 20260906010225 | 33 | 121 | 4.8 | 6.4 | 0.00 | 0.00 | 0.00 | 48 | 1013.6 |
| 20260906010023 | 33 | 128 | 6.4 | 9.7 | 0.00 | 0.00 | 0.00 | 48 | 1013.6 |
| 20260906005822 | 33 | 123 | 4.8 | 8.0 | 0.00 | 0.00 | 0.00 | 47 | 1013.7 |
| 20260906005621 | 33 | 122 | 6.4 | 8.0 | 0.00 | 0.00 | 0.00 | 47 | 1013.6 |
| 20260906005421 | 33 | 120 | 6.4 | 9.7 | 0.00 | 0.00 | 0.00 | 47 | 1013.7 |
| 20260906005218 | 33 | 117 | 6.4 | 9.7 | 0.00 | 0.00 | 0.00 | 47 | 1013.7 |
| 20260906005016 | 33 | 123 | 4.8 | 8.0 | 0.00 | 0.00 | 0.00 | 46 | 1013.6 |
| 20260906004825 | 33 | 122 | 4.8 | 8.0 | 0.00 | 0.00 | 0.00 | 46 | 1013.6 |
| 20260906004623 | 33 | 124 | 4.8 | 8.0 | 0.00 | 0.00 | 0.00 | 46 | 1013.6 |
| 20260906004422 | 33 | 126 | 4.8 | 8.0 | 0.00 | 0.00 | 0.00 | 45 | 1013.7 |
| 20260906004220 | 34 | 121 | 4.8 | 6.4 | 0.00 | 0.00 | 0.00 | 45 | 1013.6 |
| 20260906004039 | 34 | 124 | 4.8 | 6.4 | 0.00 | 0.00 | 0.00 | 45 | 1013.7 |
| 20260906003838 | 34 | 115 | 8.0 | 9.7 | 0.00 | 0.00 | 0.00 | 45 | 1013.6 |
| 20260906003617 | 34 | 110 | 6.4 | 9.7 | 0.00 | 0.00 | 0.00 | 44 | 1013.6 |
| 20260906003425 | 34 | 123 | 4.8 | 6.4 | 0.00 | 0.00 | 0.00 | 44 | 1013.7 |
| 20260906003223 | 35 | 125 | 4.8 | 6.4 | 0.00 | 0.00 | 0.00 | 43 | 1013.6 |
| 20260906003022 | 35 | 118 | 6.4 | 8.0 | 0.00 | 0.00 | 0.00 | 43 | 1013.6 |
| 20260906002821 | 35 | 120 | 6.4 | 11.3 | 0.00 | 0.00 | 0.00 | 43 | 1013.7 |
| 20260906002619 | 35 | 120 | 8.0 | 9.7 | 0.00 | 0.00 | 0.00 | 43 | 1013.6 |
| 20260906002417 | 35 | 121 | 4.8 | 6.4 | 0.00 | 0.00 | 0.00 | 42 | 1013.6 |
| 20260906002216 | 35 | 113 | 6.4 | 8.0 | 0.00 | 0.00 | 0.00 | 42 | 1013.5 |
| 20260906002025 | 35 | 125 | 6.4 | 8.0 | 0.00 | 0.00 | 0.00 | 42 | 1013.6 |
| 20260906001823 | 35 | 117 | 11.3 | 12.9 | 0.00 | 0.00 | 0.00 | 42 | 1013.8 |
| 20260906001622 | 35 | 110 | 9.7 | 12.9 | 0.00 | 0.00 | 0.00 | 41 | 1013.6 |
| 20260906001420 | 35 | 125 | 8.0 | 12.9 | 0.00 | 0.00 | 0.00 | 41 | 1013.7 |
| 20260906001219 | 36 | 112 | 8.0 | 11.3 | 0.00 | 0.00 | 0.00 | 41 | 1013.4 |
| 20260906001017 | 36 | 122 | 4.8 | 6.4 | 0.00 | 0.00 | 0.00 | 40 | 1013.6 |
| 20260906000817 | 36 | 144 | 4.8 | 4.8 | 0.00 | 0.00 | 0.00 | 40 | 1013.4 |
| 20260906000624 | 36 | 141 | 6.4 | 8.0 | 0.00 | 0.00 | 0.00 | 40 | 1013.6 |
| 20260906000425 | 36 | 132 | 8.0 | 12.9 | 0.00 | 0.00 | 0.00 | 40 | 1013.6 |
| 20260906000222 | 36 | 122 | 8.0 | 12.9 | 0.00 | 0.00 | 0.00 | 40 | 1013.5 |
| 20260906000021 | 36 | 129 | 8.0 | 9.7 | 0.00 | 0.00 | 0.00 | 40 | 1013.5 |
| 20260905235840 | 36 | 124 | 4.8 | 6.4 | 0.00 | 0.00 | 0.00 | 40 | 1013.4 |
| 20260905235639 | 36 | 144 | 9.7 | 12.9 | 0.00 | 0.00 | 0.00 | 40 | 1013.2 |
| 20260905235416 | 36 | 134 | 8.0 | 9.7 | 0.00 | 0.00 | 0.00 | 39 | 1013.5 |
| 20260905235245 | 36 | 138 | 6.4 | 8.0 | 0.00 | 0.00 | 0.00 | 39 | 1013.3 |
| 20260905235023 | 36 | 149 | 6.4 | 9.7 | 0.00 | 0.00 | 0.00 | 38 | 1013.4 |
| 20260905234822 | 36 | 142 | 4.8 | 6.4 | 0.00 | 0.00 | 0.00 | 38 | 1013.4 |
| 20260905234621 | 36 | 137 | 6.4 | 9.7 | 0.00 | 0.00 | 0.00 | 38 | 1013.6 |
| 20260905234419 | 36 | 106 | 6.4 | 11.3 | 0.00 | 0.00 | 0.00 | 38 | 1013.4 |
| 20260905234217 | 36 | 110 | 6.4 | 8.0 | 0.00 | 0.00 | 0.00 | 38 | 1013.5 |
| 20260905234016 | 36 | 118 | 8.0 | 12.9 | 0.00 | 0.00 | 0.00 | 38 | 1013.4 |
| 20260905233845 | 36 | 117 | 9.7 | 11.3 | 0.00 | 0.00 | 0.00 | 38 | 1013.5 |
| 20260905233623 | 36 | 103 | 6.4 | 11.3 | 0.00 | 0.00 | 0.00 | 39 | 1013.3 |
| 20260905233442 | 36 | 101 | 6.4 | 9.7 | 0.00 | 0.00 | 0.00 | 39 | 1013.4 |
| 20260905233220 | 36 | 101 | 9.7 | 12.9 | 0.00 | 0.00 | 0.00 | 39 | 1013.6 |
| 20260905233039 | 36 | 97 | 8.0 | 14.5 | 0.00 | 0.00 | 0.00 | 39 | 1013.2 |
| 20260905232837 | 36 | 131 | 8.0 | 11.3 | 0.00 | 0.00 | 0.00 | 39 | 1013.3 |
| 20260905232616 | 36 | 106 | 12.9 | 16.1 | 0.00 | 0.00 | 0.00 | 39 | 1013.4 |
| 20260905232424 | 36 | 111 | 11.3 | 16.1 | 0.00 | 0.00 | 0.00 | 39 | 1013.5 |
| 20260905232226 | 37 | 105 | 4.8 | 8.0 | 0.00 | 0.00 | 0.00 | 39 | 1013.4 |
| 20260905232022 | 37 | 62 | 4.8 | 8.0 | 0.00 | 0.00 | 0.00 | 39 | 1013.3 |
| 20260905231821 | 37 | 78 | 4.8 | 8.0 | 0.00 | 0.00 | 0.00 | 39 | 1013.4 |
| 20260905231619 | 37 | 85 | 8.0 | 12.9 | 0.00 | 0.00 | 0.00 | 38 | 1013.6 |
| 20260905231417 | 37 | 104 | 6.4 | 9.7 | 0.00 | 0.00 | 0.00 | 39 | 1013.3 |
| 20260905231216 | 36 | 103 | 6.4 | 9.7 | 0.00 | 0.00 | 0.00 | 39 | 1013.5 |
| 20260905231025 | 36 | 86 | 11.3 | 16.1 | 0.00 | 0.00 | 0.00 | 39 | 1013.4 |
| 20260905230823 | 36 | 73 | 16.1 | 20.9 | 0.00 | 0.00 | 0.00 | 39 | 1013.3 |
| 20260905230642 | 37 | 92 | 8.0 | 12.9 | 0.00 | 0.00 | 0.00 | 39 | 1013.3 |
| 20260905230420 | 37 | 96 | 6.4 | 9.7 | 0.00 | 0.00 | 0.00 | 38 | 1013.3 |
| 20260905230219 | 37 | 80 | 6.4 | 9.7 | 0.00 | 0.00 | 0.00 | 38 | 1013.3 |
| 20260905230017 | 37 | 135 | 3.2 | 6.4 | 0.00 | 0.00 | 0.00 | 37 | 1013.2 |
| 20260905225815 | 37 | 123 | 8.0 | 9.7 | 0.00 | 0.00 | 0.00 | 38 | 1013.5 |
| 20260905225625 | 37 | 174 | 4.8 | 6.4 | 0.00 | 0.00 | 0.00 | 37 | 1013.4 |
| 20260905225423 | 37 | 169 | 3.2 | 6.4 | 0.00 | 0.00 | 0.00 | 37 | 1013.2 |
| 20260905225221 | 37 | 121 | 1.6 | 3.2 | 0.00 | 0.00 | 0.00 | 37 | 1013.5 |
| 20260905225020 | 36 | 135 | 4.8 | 9.7 | 0.00 | 0.00 | 0.00 | 39 | 1013.3 |
| 20260905224819 | 36 | 141 | 8.0 | 14.5 | 0.00 | 0.00 | 0.00 | 39 | 1013.4 |
| 20260905224618 | 36 | 127 | 12.9 | 16.1 | 0.00 | 0.00 | 0.00 | 39 | 1013.5 |
| 20260905224416 | 37 | 136 | 12.9 | 17.7 | 0.00 | 0.00 | 0.00 | 39 | 1013.5 |
| 20260905224224 | 37 | 193 | 11.3 | 16.1 | 0.00 | 0.00 | 0.00 | 39 | 1013.4 |
| 20260905224022 | 37 | 164 | 12.9 | 16.1 | 0.00 | 0.00 | 0.00 | 39 | 1013.4 |
| 20260905223821 | 37 | 153 | 11.3 | 14.5 | 0.00 | 0.00 | 0.00 | 38 | 1013.4 |
| 20260905223620 | 36 | 129 | 6.4 | 9.7 | 0.00 | 0.00 | 0.00 | 39 | 1013.5 |
| 20260905223418 | 37 | 116 | 11.3 | 16.1 | 0.00 | 0.00 | 0.00 | 39 | 1013.4 |
| 20260905223217 | 37 | 136 | 8.0 | 12.9 | 0.00 | 0.00 | 0.00 | 39 | 1013.5 |
| 20260905223016 | 37 | 92 | 6.4 | 11.3 | 0.00 | 0.00 | 0.00 | 38 | 1013.5 |
| 20260905222824 | 37 | 121 | 8.0 | 14.5 | 0.00 | 0.00 | 0.00 | 39 | 1013.4 |
| 20260905222622 | 37 | 77 | 8.0 | 16.1 | 0.00 | 0.00 | 0.00 | 38 | 1013.4 |
| 20260905222421 | 37 | 100 | 9.7 | 14.5 | 0.00 | 0.00 | 0.00 | 38 | 1013.5 |
| 20260905222300 | 38 | 113 | 12.9 | 19.3 | 0.00 | 0.00 | 0.00 | 38 | 1013.4 |
| 20260905222018 | 37 | 125 | 4.8 | 6.4 | 0.00 | 0.00 | 0.00 | 38 | 1013.6 |
| 20260905221817 | 37 | 100 | 6.4 | 9.7 | 0.00 | 0.00 | 0.00 | 38 | 1013.5 |
| 20260905221625 | 37 | 113 | 4.8 | 9.7 | 0.00 | 0.00 | 0.00 | 39 | 1013.5 |
| 20260905221424 | 37 | 95 | 6.4 | 11.3 | 0.00 | 0.00 | 0.00 | 39 | 1013.4 |